<gpx creator="Cyclotour.ca" version="1.1" xmlns:gpsies="http://www.gpsies.com/GPX/1/0" xmlns:xsi="http://www.w3.org/2001/XMLSchema-instance" xmlns="http://www.topografix.com/GPX/1/1" xsi:schemaLocation="http://www.topografix.com/GPX/1/1 http://www.topografix.com/GPX/1/1/gpx.xsd http://www.gpsies.com/GPX/1/0 http://www.gpsies.com/gpsies.xsd">
<trk>
<name>Lac Simon Jour 8-St-Sauveur-Rawdon 74,3km  2023</name>
<trkseg>
<trkpt lat="45.889830000" lon="-74.150110000">
<ele>0</ele>
<time>2026-09-04T06:26:57Z</time>
</trkpt>
<trkpt lat="45.889830000" lon="-74.150070000">
<ele>0</ele>
<time>2026-09-04T06:26:58Z</time>
</trkpt>
<trkpt lat="45.889830000" lon="-74.150070000">
<ele>0</ele>
<time>2026-09-04T06:26:59Z</time>
</trkpt>
<trkpt lat="45.889840000" lon="-74.149790000">
<ele>0</ele>
<time>2026-09-04T06:27:00Z</time>
</trkpt>
<trkpt lat="45.889930000" lon="-74.149310000">
<ele>0</ele>
<time>2026-09-04T06:27:01Z</time>
</trkpt>
<trkpt lat="45.890000000" lon="-74.149100000">
<ele>0</ele>
<time>2026-09-04T06:27:02Z</time>
</trkpt>
<trkpt lat="45.889940000" lon="-74.149010000">
<ele>0</ele>
<time>2026-09-04T06:27:03Z</time>
</trkpt>
<trkpt lat="45.889940000" lon="-74.149010000">
<ele>0</ele>
<time>2026-09-04T06:27:04Z</time>
</trkpt>
<trkpt lat="45.889800000" lon="-74.148800000">
<ele>0</ele>
<time>2026-09-04T06:27:05Z</time>
</trkpt>
<trkpt lat="45.889630000" lon="-74.148340000">
<ele>0</ele>
<time>2026-09-04T06:27:06Z</time>
</trkpt>
<trkpt lat="45.889190000" lon="-74.147070000">
<ele>0</ele>
<time>2026-09-04T06:27:07Z</time>
</trkpt>
<trkpt lat="45.889020000" lon="-74.146570000">
<ele>0</ele>
<time>2026-09-04T06:27:08Z</time>
</trkpt>
<trkpt lat="45.888810000" lon="-74.145900000">
<ele>0</ele>
<time>2026-09-04T06:27:09Z</time>
</trkpt>
<trkpt lat="45.888750000" lon="-74.145570000">
<ele>0</ele>
<time>2026-09-04T06:27:10Z</time>
</trkpt>
<trkpt lat="45.888780000" lon="-74.145010000">
<ele>0</ele>
<time>2026-09-04T06:27:11Z</time>
</trkpt>
<trkpt lat="45.888860000" lon="-74.144440000">
<ele>0</ele>
<time>2026-09-04T06:27:12Z</time>
</trkpt>
<trkpt lat="45.888950000" lon="-74.143590000">
<ele>0</ele>
<time>2026-09-04T06:27:13Z</time>
</trkpt>
<trkpt lat="45.888940000" lon="-74.143190000">
<ele>0</ele>
<time>2026-09-04T06:27:14Z</time>
</trkpt>
<trkpt lat="45.888700000" lon="-74.141670000">
<ele>0</ele>
<time>2026-09-04T06:27:15Z</time>
</trkpt>
<trkpt lat="45.888570000" lon="-74.140910000">
<ele>0</ele>
<time>2026-09-04T06:27:16Z</time>
</trkpt>
<trkpt lat="45.888410000" lon="-74.140170000">
<ele>0</ele>
<time>2026-09-04T06:27:17Z</time>
</trkpt>
<trkpt lat="45.888110000" lon="-74.138950000">
<ele>0</ele>
<time>2026-09-04T06:27:18Z</time>
</trkpt>
<trkpt lat="45.887650000" lon="-74.137220000">
<ele>0</ele>
<time>2026-09-04T06:27:19Z</time>
</trkpt>
<trkpt lat="45.886990000" lon="-74.134960000">
<ele>0</ele>
<time>2026-09-04T06:27:20Z</time>
</trkpt>
<trkpt lat="45.886640000" lon="-74.133700000">
<ele>0</ele>
<time>2026-09-04T06:27:21Z</time>
</trkpt>
<trkpt lat="45.885860000" lon="-74.130920000">
<ele>0</ele>
<time>2026-09-04T06:27:22Z</time>
</trkpt>
<trkpt lat="45.885460000" lon="-74.129480000">
<ele>0</ele>
<time>2026-09-04T06:27:23Z</time>
</trkpt>
<trkpt lat="45.885280000" lon="-74.128680000">
<ele>0</ele>
<time>2026-09-04T06:27:24Z</time>
</trkpt>
<trkpt lat="45.885250000" lon="-74.127650000">
<ele>0</ele>
<time>2026-09-04T06:27:25Z</time>
</trkpt>
<trkpt lat="45.885260000" lon="-74.126620000">
<ele>0</ele>
<time>2026-09-04T06:27:26Z</time>
</trkpt>
<trkpt lat="45.885280000" lon="-74.123680000">
<ele>0</ele>
<time>2026-09-04T06:27:27Z</time>
</trkpt>
<trkpt lat="45.885300000" lon="-74.123420000">
<ele>0</ele>
<time>2026-09-04T06:27:28Z</time>
</trkpt>
<trkpt lat="45.885380000" lon="-74.122960000">
<ele>0</ele>
<time>2026-09-04T06:27:29Z</time>
</trkpt>
<trkpt lat="45.885740000" lon="-74.121320000">
<ele>0</ele>
<time>2026-09-04T06:27:30Z</time>
</trkpt>
<trkpt lat="45.885790000" lon="-74.121010000">
<ele>0</ele>
<time>2026-09-04T06:27:31Z</time>
</trkpt>
<trkpt lat="45.885820000" lon="-74.121010000">
<ele>0</ele>
<time>2026-09-04T06:27:32Z</time>
</trkpt>
<trkpt lat="45.885840000" lon="-74.121010000">
<ele>0</ele>
<time>2026-09-04T06:27:33Z</time>
</trkpt>
<trkpt lat="45.885840000" lon="-74.121010000">
<ele>0</ele>
<time>2026-09-04T06:27:34Z</time>
</trkpt>
<trkpt lat="45.886720000" lon="-74.121040000">
<ele>0</ele>
<time>2026-09-04T06:27:35Z</time>
</trkpt>
<trkpt lat="45.887220000" lon="-74.121020000">
<ele>0</ele>
<time>2026-09-04T06:27:36Z</time>
</trkpt>
<trkpt lat="45.887580000" lon="-74.121010000">
<ele>0</ele>
<time>2026-09-04T06:27:37Z</time>
</trkpt>
<trkpt lat="45.887940000" lon="-74.121000000">
<ele>0</ele>
<time>2026-09-04T06:27:38Z</time>
</trkpt>
<trkpt lat="45.888290000" lon="-74.121040000">
<ele>0</ele>
<time>2026-09-04T06:27:39Z</time>
</trkpt>
<trkpt lat="45.889010000" lon="-74.121110000">
<ele>0</ele>
<time>2026-09-04T06:27:40Z</time>
</trkpt>
<trkpt lat="45.889590000" lon="-74.121090000">
<ele>0</ele>
<time>2026-09-04T06:27:41Z</time>
</trkpt>
<trkpt lat="45.890160000" lon="-74.121020000">
<ele>0</ele>
<time>2026-09-04T06:27:42Z</time>
</trkpt>
<trkpt lat="45.890370000" lon="-74.121000000">
<ele>0</ele>
<time>2026-09-04T06:27:43Z</time>
</trkpt>
<trkpt lat="45.890640000" lon="-74.121080000">
<ele>0</ele>
<time>2026-09-04T06:27:44Z</time>
</trkpt>
<trkpt lat="45.890960000" lon="-74.121230000">
<ele>0</ele>
<time>2026-09-04T06:27:45Z</time>
</trkpt>
<trkpt lat="45.891300000" lon="-74.121400000">
<ele>0</ele>
<time>2026-09-04T06:27:46Z</time>
</trkpt>
<trkpt lat="45.892790000" lon="-74.122120000">
<ele>0</ele>
<time>2026-09-04T06:27:47Z</time>
</trkpt>
<trkpt lat="45.892900000" lon="-74.122130000">
<ele>0</ele>
<time>2026-09-04T06:27:48Z</time>
</trkpt>
<trkpt lat="45.893040000" lon="-74.122100000">
<ele>0</ele>
<time>2026-09-04T06:27:49Z</time>
</trkpt>
<trkpt lat="45.893850000" lon="-74.121840000">
<ele>0</ele>
<time>2026-09-04T06:27:50Z</time>
</trkpt>
<trkpt lat="45.893830000" lon="-74.121760000">
<ele>0</ele>
<time>2026-09-04T06:27:51Z</time>
</trkpt>
<trkpt lat="45.893830000" lon="-74.121760000">
<ele>0</ele>
<time>2026-09-04T06:27:52Z</time>
</trkpt>
<trkpt lat="45.893570000" lon="-74.120660000">
<ele>0</ele>
<time>2026-09-04T06:27:53Z</time>
</trkpt>
<trkpt lat="45.893440000" lon="-74.119870000">
<ele>0</ele>
<time>2026-09-04T06:27:54Z</time>
</trkpt>
<trkpt lat="45.893410000" lon="-74.119720000">
<ele>0</ele>
<time>2026-09-04T06:27:55Z</time>
</trkpt>
<trkpt lat="45.893350000" lon="-74.119600000">
<ele>0</ele>
<time>2026-09-04T06:27:56Z</time>
</trkpt>
<trkpt lat="45.893290000" lon="-74.119360000">
<ele>0</ele>
<time>2026-09-04T06:27:57Z</time>
</trkpt>
<trkpt lat="45.893020000" lon="-74.117580000">
<ele>0</ele>
<time>2026-09-04T06:27:58Z</time>
</trkpt>
<trkpt lat="45.892990000" lon="-74.117380000">
<ele>0</ele>
<time>2026-09-04T06:27:59Z</time>
</trkpt>
<trkpt lat="45.893020000" lon="-74.117370000">
<ele>0</ele>
<time>2026-09-04T06:28:00Z</time>
</trkpt>
<trkpt lat="45.893020000" lon="-74.117370000">
<ele>0</ele>
<time>2026-09-04T06:28:01Z</time>
</trkpt>
<trkpt lat="45.893090000" lon="-74.117330000">
<ele>0</ele>
<time>2026-09-04T06:28:02Z</time>
</trkpt>
<trkpt lat="45.893210000" lon="-74.117180000">
<ele>0</ele>
<time>2026-09-04T06:28:03Z</time>
</trkpt>
<trkpt lat="45.893370000" lon="-74.116980000">
<ele>0</ele>
<time>2026-09-04T06:28:04Z</time>
</trkpt>
<trkpt lat="45.893910000" lon="-74.116300000">
<ele>0</ele>
<time>2026-09-04T06:28:05Z</time>
</trkpt>
<trkpt lat="45.894550000" lon="-74.115450000">
<ele>0</ele>
<time>2026-09-04T06:28:06Z</time>
</trkpt>
<trkpt lat="45.894840000" lon="-74.115090000">
<ele>0</ele>
<time>2026-09-04T06:28:07Z</time>
</trkpt>
<trkpt lat="45.895040000" lon="-74.115090000">
<ele>0</ele>
<time>2026-09-04T06:28:08Z</time>
</trkpt>
<trkpt lat="45.895160000" lon="-74.115040000">
<ele>0</ele>
<time>2026-09-04T06:28:09Z</time>
</trkpt>
<trkpt lat="45.895570000" lon="-74.114570000">
<ele>0</ele>
<time>2026-09-04T06:28:10Z</time>
</trkpt>
<trkpt lat="45.895670000" lon="-74.114450000">
<ele>0</ele>
<time>2026-09-04T06:28:11Z</time>
</trkpt>
<trkpt lat="45.896070000" lon="-74.114130000">
<ele>0</ele>
<time>2026-09-04T06:28:12Z</time>
</trkpt>
<trkpt lat="45.896070000" lon="-74.114130000">
<ele>0</ele>
<time>2026-09-04T06:28:13Z</time>
</trkpt>
<trkpt lat="45.896350000" lon="-74.113930000">
<ele>0</ele>
<time>2026-09-04T06:28:14Z</time>
</trkpt>
<trkpt lat="45.896290000" lon="-74.113780000">
<ele>0</ele>
<time>2026-09-04T06:28:15Z</time>
</trkpt>
<trkpt lat="45.896160000" lon="-74.113550000">
<ele>0</ele>
<time>2026-09-04T06:28:16Z</time>
</trkpt>
<trkpt lat="45.895900000" lon="-74.113200000">
<ele>0</ele>
<time>2026-09-04T06:28:17Z</time>
</trkpt>
<trkpt lat="45.895730000" lon="-74.113030000">
<ele>0</ele>
<time>2026-09-04T06:28:18Z</time>
</trkpt>
<trkpt lat="45.895580000" lon="-74.112900000">
<ele>0</ele>
<time>2026-09-04T06:28:19Z</time>
</trkpt>
<trkpt lat="45.895490000" lon="-74.112860000">
<ele>0</ele>
<time>2026-09-04T06:28:20Z</time>
</trkpt>
<trkpt lat="45.894680000" lon="-74.112460000">
<ele>0</ele>
<time>2026-09-04T06:28:21Z</time>
</trkpt>
<trkpt lat="45.894400000" lon="-74.112250000">
<ele>0</ele>
<time>2026-09-04T06:28:22Z</time>
</trkpt>
<trkpt lat="45.894190000" lon="-74.112010000">
<ele>0</ele>
<time>2026-09-04T06:28:23Z</time>
</trkpt>
<trkpt lat="45.893850000" lon="-74.111500000">
<ele>0</ele>
<time>2026-09-04T06:28:24Z</time>
</trkpt>
<trkpt lat="45.893390000" lon="-74.110740000">
<ele>0</ele>
<time>2026-09-04T06:28:25Z</time>
</trkpt>
<trkpt lat="45.893200000" lon="-74.110360000">
<ele>0</ele>
<time>2026-09-04T06:28:26Z</time>
</trkpt>
<trkpt lat="45.892620000" lon="-74.109030000">
<ele>0</ele>
<time>2026-09-04T06:28:27Z</time>
</trkpt>
<trkpt lat="45.891510000" lon="-74.106460000">
<ele>0</ele>
<time>2026-09-04T06:28:28Z</time>
</trkpt>
<trkpt lat="45.890950000" lon="-74.105130000">
<ele>0</ele>
<time>2026-09-04T06:28:29Z</time>
</trkpt>
<trkpt lat="45.890600000" lon="-74.104490000">
<ele>0</ele>
<time>2026-09-04T06:28:30Z</time>
</trkpt>
<trkpt lat="45.889520000" lon="-74.102740000">
<ele>0</ele>
<time>2026-09-04T06:28:31Z</time>
</trkpt>
<trkpt lat="45.888670000" lon="-74.101370000">
<ele>0</ele>
<time>2026-09-04T06:28:32Z</time>
</trkpt>
<trkpt lat="45.888250000" lon="-74.100640000">
<ele>0</ele>
<time>2026-09-04T06:28:33Z</time>
</trkpt>
<trkpt lat="45.888010000" lon="-74.100130000">
<ele>0</ele>
<time>2026-09-04T06:28:34Z</time>
</trkpt>
<trkpt lat="45.887770000" lon="-74.099450000">
<ele>0</ele>
<time>2026-09-04T06:28:35Z</time>
</trkpt>
<trkpt lat="45.887380000" lon="-74.098420000">
<ele>0</ele>
<time>2026-09-04T06:28:36Z</time>
</trkpt>
<trkpt lat="45.886960000" lon="-74.097240000">
<ele>0</ele>
<time>2026-09-04T06:28:37Z</time>
</trkpt>
<trkpt lat="45.886730000" lon="-74.096670000">
<ele>0</ele>
<time>2026-09-04T06:28:38Z</time>
</trkpt>
<trkpt lat="45.886520000" lon="-74.096310000">
<ele>0</ele>
<time>2026-09-04T06:28:39Z</time>
</trkpt>
<trkpt lat="45.886000000" lon="-74.095570000">
<ele>0</ele>
<time>2026-09-04T06:28:40Z</time>
</trkpt>
<trkpt lat="45.885620000" lon="-74.095050000">
<ele>0</ele>
<time>2026-09-04T06:28:41Z</time>
</trkpt>
<trkpt lat="45.884180000" lon="-74.093120000">
<ele>0</ele>
<time>2026-09-04T06:28:42Z</time>
</trkpt>
<trkpt lat="45.883920000" lon="-74.092770000">
<ele>0</ele>
<time>2026-09-04T06:28:43Z</time>
</trkpt>
<trkpt lat="45.883620000" lon="-74.092370000">
<ele>0</ele>
<time>2026-09-04T06:28:44Z</time>
</trkpt>
<trkpt lat="45.883410000" lon="-74.092050000">
<ele>0</ele>
<time>2026-09-04T06:28:45Z</time>
</trkpt>
<trkpt lat="45.883340000" lon="-74.091930000">
<ele>0</ele>
<time>2026-09-04T06:28:46Z</time>
</trkpt>
<trkpt lat="45.883350000" lon="-74.091880000">
<ele>0</ele>
<time>2026-09-04T06:28:47Z</time>
</trkpt>
<trkpt lat="45.883350000" lon="-74.091790000">
<ele>0</ele>
<time>2026-09-04T06:28:48Z</time>
</trkpt>
<trkpt lat="45.883100000" lon="-74.091280000">
<ele>0</ele>
<time>2026-09-04T06:28:49Z</time>
</trkpt>
<trkpt lat="45.883020000" lon="-74.091060000">
<ele>0</ele>
<time>2026-09-04T06:28:50Z</time>
</trkpt>
<trkpt lat="45.882900000" lon="-74.090710000">
<ele>0</ele>
<time>2026-09-04T06:28:51Z</time>
</trkpt>
<trkpt lat="45.882700000" lon="-74.089790000">
<ele>0</ele>
<time>2026-09-04T06:28:52Z</time>
</trkpt>
<trkpt lat="45.882420000" lon="-74.088220000">
<ele>0</ele>
<time>2026-09-04T06:28:53Z</time>
</trkpt>
<trkpt lat="45.881980000" lon="-74.085980000">
<ele>0</ele>
<time>2026-09-04T06:28:54Z</time>
</trkpt>
<trkpt lat="45.881890000" lon="-74.085570000">
<ele>0</ele>
<time>2026-09-04T06:28:55Z</time>
</trkpt>
<trkpt lat="45.881720000" lon="-74.085020000">
<ele>0</ele>
<time>2026-09-04T06:28:56Z</time>
</trkpt>
<trkpt lat="45.881480000" lon="-74.084330000">
<ele>0</ele>
<time>2026-09-04T06:28:57Z</time>
</trkpt>
<trkpt lat="45.881180000" lon="-74.083480000">
<ele>0</ele>
<time>2026-09-04T06:28:58Z</time>
</trkpt>
<trkpt lat="45.880830000" lon="-74.082800000">
<ele>0</ele>
<time>2026-09-04T06:28:59Z</time>
</trkpt>
<trkpt lat="45.880530000" lon="-74.082390000">
<ele>0</ele>
<time>2026-09-04T06:29:00Z</time>
</trkpt>
<trkpt lat="45.880260000" lon="-74.082160000">
<ele>0</ele>
<time>2026-09-04T06:29:01Z</time>
</trkpt>
<trkpt lat="45.880170000" lon="-74.082080000">
<ele>0</ele>
<time>2026-09-04T06:29:02Z</time>
</trkpt>
<trkpt lat="45.879820000" lon="-74.081880000">
<ele>0</ele>
<time>2026-09-04T06:29:03Z</time>
</trkpt>
<trkpt lat="45.879500000" lon="-74.081740000">
<ele>0</ele>
<time>2026-09-04T06:29:04Z</time>
</trkpt>
<trkpt lat="45.879110000" lon="-74.081660000">
<ele>0</ele>
<time>2026-09-04T06:29:05Z</time>
</trkpt>
<trkpt lat="45.878660000" lon="-74.081460000">
<ele>0</ele>
<time>2026-09-04T06:29:06Z</time>
</trkpt>
<trkpt lat="45.878390000" lon="-74.081300000">
<ele>0</ele>
<time>2026-09-04T06:29:07Z</time>
</trkpt>
<trkpt lat="45.878060000" lon="-74.081090000">
<ele>0</ele>
<time>2026-09-04T06:29:08Z</time>
</trkpt>
<trkpt lat="45.877840000" lon="-74.080930000">
<ele>0</ele>
<time>2026-09-04T06:29:09Z</time>
</trkpt>
<trkpt lat="45.877590000" lon="-74.080700000">
<ele>0</ele>
<time>2026-09-04T06:29:10Z</time>
</trkpt>
<trkpt lat="45.877260000" lon="-74.080280000">
<ele>0</ele>
<time>2026-09-04T06:29:11Z</time>
</trkpt>
<trkpt lat="45.876890000" lon="-74.079740000">
<ele>0</ele>
<time>2026-09-04T06:29:12Z</time>
</trkpt>
<trkpt lat="45.876290000" lon="-74.078720000">
<ele>0</ele>
<time>2026-09-04T06:29:13Z</time>
</trkpt>
<trkpt lat="45.875820000" lon="-74.077830000">
<ele>0</ele>
<time>2026-09-04T06:29:14Z</time>
</trkpt>
<trkpt lat="45.875640000" lon="-74.077480000">
<ele>0</ele>
<time>2026-09-04T06:29:15Z</time>
</trkpt>
<trkpt lat="45.875240000" lon="-74.076900000">
<ele>0</ele>
<time>2026-09-04T06:29:16Z</time>
</trkpt>
<trkpt lat="45.875070000" lon="-74.076740000">
<ele>0</ele>
<time>2026-09-04T06:29:17Z</time>
</trkpt>
<trkpt lat="45.874800000" lon="-74.076490000">
<ele>0</ele>
<time>2026-09-04T06:29:18Z</time>
</trkpt>
<trkpt lat="45.874430000" lon="-74.076250000">
<ele>0</ele>
<time>2026-09-04T06:29:19Z</time>
</trkpt>
<trkpt lat="45.874270000" lon="-74.076160000">
<ele>0</ele>
<time>2026-09-04T06:29:20Z</time>
</trkpt>
<trkpt lat="45.873330000" lon="-74.075730000">
<ele>0</ele>
<time>2026-09-04T06:29:21Z</time>
</trkpt>
<trkpt lat="45.872840000" lon="-74.075350000">
<ele>0</ele>
<time>2026-09-04T06:29:22Z</time>
</trkpt>
<trkpt lat="45.872580000" lon="-74.075080000">
<ele>0</ele>
<time>2026-09-04T06:29:23Z</time>
</trkpt>
<trkpt lat="45.872210000" lon="-74.074580000">
<ele>0</ele>
<time>2026-09-04T06:29:24Z</time>
</trkpt>
<trkpt lat="45.871960000" lon="-74.074090000">
<ele>0</ele>
<time>2026-09-04T06:29:25Z</time>
</trkpt>
<trkpt lat="45.871590000" lon="-74.073260000">
<ele>0</ele>
<time>2026-09-04T06:29:26Z</time>
</trkpt>
<trkpt lat="45.871100000" lon="-74.072110000">
<ele>0</ele>
<time>2026-09-04T06:29:27Z</time>
</trkpt>
<trkpt lat="45.870780000" lon="-74.071590000">
<ele>0</ele>
<time>2026-09-04T06:29:28Z</time>
</trkpt>
<trkpt lat="45.870490000" lon="-74.071250000">
<ele>0</ele>
<time>2026-09-04T06:29:29Z</time>
</trkpt>
<trkpt lat="45.870210000" lon="-74.070970000">
<ele>0</ele>
<time>2026-09-04T06:29:30Z</time>
</trkpt>
<trkpt lat="45.869910000" lon="-74.070760000">
<ele>0</ele>
<time>2026-09-04T06:29:31Z</time>
</trkpt>
<trkpt lat="45.869500000" lon="-74.070560000">
<ele>0</ele>
<time>2026-09-04T06:29:32Z</time>
</trkpt>
<trkpt lat="45.868170000" lon="-74.069900000">
<ele>0</ele>
<time>2026-09-04T06:29:33Z</time>
</trkpt>
<trkpt lat="45.866790000" lon="-74.069300000">
<ele>0</ele>
<time>2026-09-04T06:29:34Z</time>
</trkpt>
<trkpt lat="45.865680000" lon="-74.068830000">
<ele>0</ele>
<time>2026-09-04T06:29:35Z</time>
</trkpt>
<trkpt lat="45.864120000" lon="-74.068200000">
<ele>0</ele>
<time>2026-09-04T06:29:36Z</time>
</trkpt>
<trkpt lat="45.863510000" lon="-74.067970000">
<ele>0</ele>
<time>2026-09-04T06:29:37Z</time>
</trkpt>
<trkpt lat="45.863080000" lon="-74.067880000">
<ele>0</ele>
<time>2026-09-04T06:29:38Z</time>
</trkpt>
<trkpt lat="45.860530000" lon="-74.067240000">
<ele>0</ele>
<time>2026-09-04T06:29:39Z</time>
</trkpt>
<trkpt lat="45.858020000" lon="-74.066580000">
<ele>0</ele>
<time>2026-09-04T06:29:40Z</time>
</trkpt>
<trkpt lat="45.857030000" lon="-74.066330000">
<ele>0</ele>
<time>2026-09-04T06:29:41Z</time>
</trkpt>
<trkpt lat="45.856720000" lon="-74.066300000">
<ele>0</ele>
<time>2026-09-04T06:29:42Z</time>
</trkpt>
<trkpt lat="45.856440000" lon="-74.066300000">
<ele>0</ele>
<time>2026-09-04T06:29:43Z</time>
</trkpt>
<trkpt lat="45.856060000" lon="-74.066340000">
<ele>0</ele>
<time>2026-09-04T06:29:44Z</time>
</trkpt>
<trkpt lat="45.855700000" lon="-74.066380000">
<ele>0</ele>
<time>2026-09-04T06:29:45Z</time>
</trkpt>
<trkpt lat="45.855170000" lon="-74.066450000">
<ele>0</ele>
<time>2026-09-04T06:29:46Z</time>
</trkpt>
<trkpt lat="45.854800000" lon="-74.066500000">
<ele>0</ele>
<time>2026-09-04T06:29:47Z</time>
</trkpt>
<trkpt lat="45.854590000" lon="-74.066500000">
<ele>0</ele>
<time>2026-09-04T06:29:48Z</time>
</trkpt>
<trkpt lat="45.853940000" lon="-74.066490000">
<ele>0</ele>
<time>2026-09-04T06:29:49Z</time>
</trkpt>
<trkpt lat="45.853170000" lon="-74.066280000">
<ele>0</ele>
<time>2026-09-04T06:29:50Z</time>
</trkpt>
<trkpt lat="45.852840000" lon="-74.066180000">
<ele>0</ele>
<time>2026-09-04T06:29:51Z</time>
</trkpt>
<trkpt lat="45.852300000" lon="-74.065930000">
<ele>0</ele>
<time>2026-09-04T06:29:52Z</time>
</trkpt>
<trkpt lat="45.851280000" lon="-74.065450000">
<ele>0</ele>
<time>2026-09-04T06:29:53Z</time>
</trkpt>
<trkpt lat="45.849820000" lon="-74.064790000">
<ele>0</ele>
<time>2026-09-04T06:29:54Z</time>
</trkpt>
<trkpt lat="45.849480000" lon="-74.064620000">
<ele>0</ele>
<time>2026-09-04T06:29:55Z</time>
</trkpt>
<trkpt lat="45.849110000" lon="-74.064360000">
<ele>0</ele>
<time>2026-09-04T06:29:56Z</time>
</trkpt>
<trkpt lat="45.848680000" lon="-74.063990000">
<ele>0</ele>
<time>2026-09-04T06:29:57Z</time>
</trkpt>
<trkpt lat="45.847880000" lon="-74.063090000">
<ele>0</ele>
<time>2026-09-04T06:29:58Z</time>
</trkpt>
<trkpt lat="45.846360000" lon="-74.061390000">
<ele>0</ele>
<time>2026-09-04T06:29:59Z</time>
</trkpt>
<trkpt lat="45.846140000" lon="-74.061130000">
<ele>0</ele>
<time>2026-09-04T06:30:00Z</time>
</trkpt>
<trkpt lat="45.845850000" lon="-74.060820000">
<ele>0</ele>
<time>2026-09-04T06:30:01Z</time>
</trkpt>
<trkpt lat="45.845740000" lon="-74.060700000">
<ele>0</ele>
<time>2026-09-04T06:30:02Z</time>
</trkpt>
<trkpt lat="45.845450000" lon="-74.060480000">
<ele>0</ele>
<time>2026-09-04T06:30:03Z</time>
</trkpt>
<trkpt lat="45.845040000" lon="-74.060240000">
<ele>0</ele>
<time>2026-09-04T06:30:04Z</time>
</trkpt>
<trkpt lat="45.844610000" lon="-74.060080000">
<ele>0</ele>
<time>2026-09-04T06:30:05Z</time>
</trkpt>
<trkpt lat="45.844230000" lon="-74.060010000">
<ele>0</ele>
<time>2026-09-04T06:30:06Z</time>
</trkpt>
<trkpt lat="45.843420000" lon="-74.059910000">
<ele>0</ele>
<time>2026-09-04T06:30:07Z</time>
</trkpt>
<trkpt lat="45.841840000" lon="-74.059640000">
<ele>0</ele>
<time>2026-09-04T06:30:08Z</time>
</trkpt>
<trkpt lat="45.840730000" lon="-74.059460000">
<ele>0</ele>
<time>2026-09-04T06:30:09Z</time>
</trkpt>
<trkpt lat="45.839660000" lon="-74.059310000">
<ele>0</ele>
<time>2026-09-04T06:30:10Z</time>
</trkpt>
<trkpt lat="45.837520000" lon="-74.058930000">
<ele>0</ele>
<time>2026-09-04T06:30:11Z</time>
</trkpt>
<trkpt lat="45.836810000" lon="-74.058760000">
<ele>0</ele>
<time>2026-09-04T06:30:12Z</time>
</trkpt>
<trkpt lat="45.836660000" lon="-74.058720000">
<ele>0</ele>
<time>2026-09-04T06:30:13Z</time>
</trkpt>
<trkpt lat="45.835940000" lon="-74.058430000">
<ele>0</ele>
<time>2026-09-04T06:30:14Z</time>
</trkpt>
<trkpt lat="45.835070000" lon="-74.058090000">
<ele>0</ele>
<time>2026-09-04T06:30:15Z</time>
</trkpt>
<trkpt lat="45.833900000" lon="-74.057630000">
<ele>0</ele>
<time>2026-09-04T06:30:16Z</time>
</trkpt>
<trkpt lat="45.832980000" lon="-74.057310000">
<ele>0</ele>
<time>2026-09-04T06:30:17Z</time>
</trkpt>
<trkpt lat="45.832030000" lon="-74.056970000">
<ele>0</ele>
<time>2026-09-04T06:30:18Z</time>
</trkpt>
<trkpt lat="45.831330000" lon="-74.056700000">
<ele>0</ele>
<time>2026-09-04T06:30:19Z</time>
</trkpt>
<trkpt lat="45.828760000" lon="-74.055670000">
<ele>0</ele>
<time>2026-09-04T06:30:20Z</time>
</trkpt>
<trkpt lat="45.828030000" lon="-74.055350000">
<ele>0</ele>
<time>2026-09-04T06:30:21Z</time>
</trkpt>
<trkpt lat="45.827580000" lon="-74.055100000">
<ele>0</ele>
<time>2026-09-04T06:30:22Z</time>
</trkpt>
<trkpt lat="45.826780000" lon="-74.054630000">
<ele>0</ele>
<time>2026-09-04T06:30:23Z</time>
</trkpt>
<trkpt lat="45.824020000" lon="-74.052910000">
<ele>0</ele>
<time>2026-09-04T06:30:24Z</time>
</trkpt>
<trkpt lat="45.820890000" lon="-74.050960000">
<ele>0</ele>
<time>2026-09-04T06:30:25Z</time>
</trkpt>
<trkpt lat="45.819560000" lon="-74.050160000">
<ele>0</ele>
<time>2026-09-04T06:30:26Z</time>
</trkpt>
<trkpt lat="45.818910000" lon="-74.049770000">
<ele>0</ele>
<time>2026-09-04T06:30:27Z</time>
</trkpt>
<trkpt lat="45.818230000" lon="-74.049320000">
<ele>0</ele>
<time>2026-09-04T06:30:28Z</time>
</trkpt>
<trkpt lat="45.817710000" lon="-74.048880000">
<ele>0</ele>
<time>2026-09-04T06:30:29Z</time>
</trkpt>
<trkpt lat="45.817450000" lon="-74.048620000">
<ele>0</ele>
<time>2026-09-04T06:30:30Z</time>
</trkpt>
<trkpt lat="45.817120000" lon="-74.048230000">
<ele>0</ele>
<time>2026-09-04T06:30:31Z</time>
</trkpt>
<trkpt lat="45.816670000" lon="-74.047620000">
<ele>0</ele>
<time>2026-09-04T06:30:32Z</time>
</trkpt>
<trkpt lat="45.816440000" lon="-74.047230000">
<ele>0</ele>
<time>2026-09-04T06:30:33Z</time>
</trkpt>
<trkpt lat="45.816230000" lon="-74.046810000">
<ele>0</ele>
<time>2026-09-04T06:30:34Z</time>
</trkpt>
<trkpt lat="45.815830000" lon="-74.045840000">
<ele>0</ele>
<time>2026-09-04T06:30:35Z</time>
</trkpt>
<trkpt lat="45.815530000" lon="-74.044940000">
<ele>0</ele>
<time>2026-09-04T06:30:36Z</time>
</trkpt>
<trkpt lat="45.815310000" lon="-74.044270000">
<ele>0</ele>
<time>2026-09-04T06:30:37Z</time>
</trkpt>
<trkpt lat="45.815040000" lon="-74.043630000">
<ele>0</ele>
<time>2026-09-04T06:30:38Z</time>
</trkpt>
<trkpt lat="45.814690000" lon="-74.043040000">
<ele>0</ele>
<time>2026-09-04T06:30:39Z</time>
</trkpt>
<trkpt lat="45.814250000" lon="-74.042490000">
<ele>0</ele>
<time>2026-09-04T06:30:40Z</time>
</trkpt>
<trkpt lat="45.814130000" lon="-74.042390000">
<ele>0</ele>
<time>2026-09-04T06:30:41Z</time>
</trkpt>
<trkpt lat="45.813700000" lon="-74.041980000">
<ele>0</ele>
<time>2026-09-04T06:30:42Z</time>
</trkpt>
<trkpt lat="45.813220000" lon="-74.041470000">
<ele>0</ele>
<time>2026-09-04T06:30:43Z</time>
</trkpt>
<trkpt lat="45.812890000" lon="-74.041020000">
<ele>0</ele>
<time>2026-09-04T06:30:44Z</time>
</trkpt>
<trkpt lat="45.812610000" lon="-74.040540000">
<ele>0</ele>
<time>2026-09-04T06:30:45Z</time>
</trkpt>
<trkpt lat="45.812420000" lon="-74.040150000">
<ele>0</ele>
<time>2026-09-04T06:30:46Z</time>
</trkpt>
<trkpt lat="45.812200000" lon="-74.039600000">
<ele>0</ele>
<time>2026-09-04T06:30:47Z</time>
</trkpt>
<trkpt lat="45.811890000" lon="-74.038690000">
<ele>0</ele>
<time>2026-09-04T06:30:48Z</time>
</trkpt>
<trkpt lat="45.810840000" lon="-74.035510000">
<ele>0</ele>
<time>2026-09-04T06:30:49Z</time>
</trkpt>
<trkpt lat="45.810400000" lon="-74.034100000">
<ele>0</ele>
<time>2026-09-04T06:30:50Z</time>
</trkpt>
<trkpt lat="45.810280000" lon="-74.033700000">
<ele>0</ele>
<time>2026-09-04T06:30:51Z</time>
</trkpt>
<trkpt lat="45.810170000" lon="-74.033200000">
<ele>0</ele>
<time>2026-09-04T06:30:52Z</time>
</trkpt>
<trkpt lat="45.810090000" lon="-74.032190000">
<ele>0</ele>
<time>2026-09-04T06:30:53Z</time>
</trkpt>
<trkpt lat="45.810040000" lon="-74.030580000">
<ele>0</ele>
<time>2026-09-04T06:30:54Z</time>
</trkpt>
<trkpt lat="45.810000000" lon="-74.029430000">
<ele>0</ele>
<time>2026-09-04T06:30:55Z</time>
</trkpt>
<trkpt lat="45.810030000" lon="-74.029010000">
<ele>0</ele>
<time>2026-09-04T06:30:56Z</time>
</trkpt>
<trkpt lat="45.810080000" lon="-74.028760000">
<ele>0</ele>
<time>2026-09-04T06:30:57Z</time>
</trkpt>
<trkpt lat="45.810190000" lon="-74.028270000">
<ele>0</ele>
<time>2026-09-04T06:30:58Z</time>
</trkpt>
<trkpt lat="45.810330000" lon="-74.027860000">
<ele>0</ele>
<time>2026-09-04T06:30:59Z</time>
</trkpt>
<trkpt lat="45.810510000" lon="-74.027460000">
<ele>0</ele>
<time>2026-09-04T06:31:00Z</time>
</trkpt>
<trkpt lat="45.810780000" lon="-74.027110000">
<ele>0</ele>
<time>2026-09-04T06:31:01Z</time>
</trkpt>
<trkpt lat="45.811200000" lon="-74.026580000">
<ele>0</ele>
<time>2026-09-04T06:31:02Z</time>
</trkpt>
<trkpt lat="45.811490000" lon="-74.026260000">
<ele>0</ele>
<time>2026-09-04T06:31:03Z</time>
</trkpt>
<trkpt lat="45.811550000" lon="-74.026160000">
<ele>0</ele>
<time>2026-09-04T06:31:04Z</time>
</trkpt>
<trkpt lat="45.811720000" lon="-74.025860000">
<ele>0</ele>
<time>2026-09-04T06:31:05Z</time>
</trkpt>
<trkpt lat="45.811820000" lon="-74.025630000">
<ele>0</ele>
<time>2026-09-04T06:31:06Z</time>
</trkpt>
<trkpt lat="45.811910000" lon="-74.025350000">
<ele>0</ele>
<time>2026-09-04T06:31:07Z</time>
</trkpt>
<trkpt lat="45.812000000" lon="-74.025050000">
<ele>0</ele>
<time>2026-09-04T06:31:08Z</time>
</trkpt>
<trkpt lat="45.812080000" lon="-74.024520000">
<ele>0</ele>
<time>2026-09-04T06:31:09Z</time>
</trkpt>
<trkpt lat="45.812080000" lon="-74.023850000">
<ele>0</ele>
<time>2026-09-04T06:31:10Z</time>
</trkpt>
<trkpt lat="45.812000000" lon="-74.023180000">
<ele>0</ele>
<time>2026-09-04T06:31:11Z</time>
</trkpt>
<trkpt lat="45.811850000" lon="-74.022580000">
<ele>0</ele>
<time>2026-09-04T06:31:12Z</time>
</trkpt>
<trkpt lat="45.811550000" lon="-74.021950000">
<ele>0</ele>
<time>2026-09-04T06:31:13Z</time>
</trkpt>
<trkpt lat="45.811280000" lon="-74.021580000">
<ele>0</ele>
<time>2026-09-04T06:31:14Z</time>
</trkpt>
<trkpt lat="45.810980000" lon="-74.021290000">
<ele>0</ele>
<time>2026-09-04T06:31:15Z</time>
</trkpt>
<trkpt lat="45.810660000" lon="-74.021030000">
<ele>0</ele>
<time>2026-09-04T06:31:16Z</time>
</trkpt>
<trkpt lat="45.809880000" lon="-74.020300000">
<ele>0</ele>
<time>2026-09-04T06:31:17Z</time>
</trkpt>
<trkpt lat="45.809670000" lon="-74.020050000">
<ele>0</ele>
<time>2026-09-04T06:31:18Z</time>
</trkpt>
<trkpt lat="45.809340000" lon="-74.019580000">
<ele>0</ele>
<time>2026-09-04T06:31:19Z</time>
</trkpt>
<trkpt lat="45.809040000" lon="-74.019090000">
<ele>0</ele>
<time>2026-09-04T06:31:20Z</time>
</trkpt>
<trkpt lat="45.808560000" lon="-74.018090000">
<ele>0</ele>
<time>2026-09-04T06:31:21Z</time>
</trkpt>
<trkpt lat="45.808380000" lon="-74.017590000">
<ele>0</ele>
<time>2026-09-04T06:31:22Z</time>
</trkpt>
<trkpt lat="45.808270000" lon="-74.017200000">
<ele>0</ele>
<time>2026-09-04T06:31:23Z</time>
</trkpt>
<trkpt lat="45.808070000" lon="-74.016350000">
<ele>0</ele>
<time>2026-09-04T06:31:24Z</time>
</trkpt>
<trkpt lat="45.807920000" lon="-74.015610000">
<ele>0</ele>
<time>2026-09-04T06:31:25Z</time>
</trkpt>
<trkpt lat="45.807630000" lon="-74.014190000">
<ele>0</ele>
<time>2026-09-04T06:31:26Z</time>
</trkpt>
<trkpt lat="45.807490000" lon="-74.013640000">
<ele>0</ele>
<time>2026-09-04T06:31:27Z</time>
</trkpt>
<trkpt lat="45.807320000" lon="-74.013080000">
<ele>0</ele>
<time>2026-09-04T06:31:28Z</time>
</trkpt>
<trkpt lat="45.807030000" lon="-74.012390000">
<ele>0</ele>
<time>2026-09-04T06:31:29Z</time>
</trkpt>
<trkpt lat="45.806800000" lon="-74.011920000">
<ele>0</ele>
<time>2026-09-04T06:31:30Z</time>
</trkpt>
<trkpt lat="45.806530000" lon="-74.011460000">
<ele>0</ele>
<time>2026-09-04T06:31:31Z</time>
</trkpt>
<trkpt lat="45.806030000" lon="-74.010740000">
<ele>0</ele>
<time>2026-09-04T06:31:32Z</time>
</trkpt>
<trkpt lat="45.805780000" lon="-74.010460000">
<ele>0</ele>
<time>2026-09-04T06:31:33Z</time>
</trkpt>
<trkpt lat="45.805800000" lon="-74.010310000">
<ele>0</ele>
<time>2026-09-04T06:31:34Z</time>
</trkpt>
<trkpt lat="45.805800000" lon="-74.010310000">
<ele>0</ele>
<time>2026-09-04T06:31:35Z</time>
</trkpt>
<trkpt lat="45.805840000" lon="-74.010140000">
<ele>0</ele>
<time>2026-09-04T06:31:36Z</time>
</trkpt>
<trkpt lat="45.805920000" lon="-74.010040000">
<ele>0</ele>
<time>2026-09-04T06:31:37Z</time>
</trkpt>
<trkpt lat="45.805970000" lon="-74.009790000">
<ele>0</ele>
<time>2026-09-04T06:31:38Z</time>
</trkpt>
<trkpt lat="45.806020000" lon="-74.009620000">
<ele>0</ele>
<time>2026-09-04T06:31:39Z</time>
</trkpt>
<trkpt lat="45.806090000" lon="-74.009470000">
<ele>0</ele>
<time>2026-09-04T06:31:40Z</time>
</trkpt>
<trkpt lat="45.806200000" lon="-74.009280000">
<ele>0</ele>
<time>2026-09-04T06:31:41Z</time>
</trkpt>
<trkpt lat="45.806270000" lon="-74.009030000">
<ele>0</ele>
<time>2026-09-04T06:31:42Z</time>
</trkpt>
<trkpt lat="45.806300000" lon="-74.008640000">
<ele>0</ele>
<time>2026-09-04T06:31:43Z</time>
</trkpt>
<trkpt lat="45.806300000" lon="-74.007960000">
<ele>0</ele>
<time>2026-09-04T06:31:44Z</time>
</trkpt>
<trkpt lat="45.806250000" lon="-74.007610000">
<ele>0</ele>
<time>2026-09-04T06:31:45Z</time>
</trkpt>
<trkpt lat="45.806210000" lon="-74.007360000">
<ele>0</ele>
<time>2026-09-04T06:31:46Z</time>
</trkpt>
<trkpt lat="45.806210000" lon="-74.007090000">
<ele>0</ele>
<time>2026-09-04T06:31:47Z</time>
</trkpt>
<trkpt lat="45.806190000" lon="-74.006850000">
<ele>0</ele>
<time>2026-09-04T06:31:48Z</time>
</trkpt>
<trkpt lat="45.806140000" lon="-74.006800000">
<ele>0</ele>
<time>2026-09-04T06:31:49Z</time>
</trkpt>
<trkpt lat="45.806090000" lon="-74.006720000">
<ele>0</ele>
<time>2026-09-04T06:31:50Z</time>
</trkpt>
<trkpt lat="45.806070000" lon="-74.006600000">
<ele>0</ele>
<time>2026-09-04T06:31:51Z</time>
</trkpt>
<trkpt lat="45.806080000" lon="-74.006510000">
<ele>0</ele>
<time>2026-09-04T06:31:52Z</time>
</trkpt>
<trkpt lat="45.806080000" lon="-74.006510000">
<ele>0</ele>
<time>2026-09-04T06:31:53Z</time>
</trkpt>
<trkpt lat="45.806280000" lon="-74.004750000">
<ele>0</ele>
<time>2026-09-04T06:31:54Z</time>
</trkpt>
<trkpt lat="45.806450000" lon="-74.003510000">
<ele>0</ele>
<time>2026-09-04T06:31:55Z</time>
</trkpt>
<trkpt lat="45.806540000" lon="-74.002750000">
<ele>0</ele>
<time>2026-09-04T06:31:56Z</time>
</trkpt>
<trkpt lat="45.806680000" lon="-74.001680000">
<ele>0</ele>
<time>2026-09-04T06:31:57Z</time>
</trkpt>
<trkpt lat="45.806770000" lon="-74.000580000">
<ele>0</ele>
<time>2026-09-04T06:31:58Z</time>
</trkpt>
<trkpt lat="45.807130000" lon="-73.998060000">
<ele>0</ele>
<time>2026-09-04T06:31:59Z</time>
</trkpt>
<trkpt lat="45.807140000" lon="-73.997920000">
<ele>0</ele>
<time>2026-09-04T06:32:00Z</time>
</trkpt>
<trkpt lat="45.807200000" lon="-73.997940000">
<ele>0</ele>
<time>2026-09-04T06:32:01Z</time>
</trkpt>
<trkpt lat="45.807200000" lon="-73.997940000">
<ele>0</ele>
<time>2026-09-04T06:32:02Z</time>
</trkpt>
<trkpt lat="45.807750000" lon="-73.998090000">
<ele>0</ele>
<time>2026-09-04T06:32:03Z</time>
</trkpt>
<trkpt lat="45.808240000" lon="-73.998220000">
<ele>0</ele>
<time>2026-09-04T06:32:04Z</time>
</trkpt>
<trkpt lat="45.809310000" lon="-73.998470000">
<ele>0</ele>
<time>2026-09-04T06:32:05Z</time>
</trkpt>
<trkpt lat="45.810880000" lon="-73.998850000">
<ele>0</ele>
<time>2026-09-04T06:32:06Z</time>
</trkpt>
<trkpt lat="45.811120000" lon="-73.998910000">
<ele>0</ele>
<time>2026-09-04T06:32:07Z</time>
</trkpt>
<trkpt lat="45.811680000" lon="-73.999020000">
<ele>0</ele>
<time>2026-09-04T06:32:08Z</time>
</trkpt>
<trkpt lat="45.812030000" lon="-73.999020000">
<ele>0</ele>
<time>2026-09-04T06:32:09Z</time>
</trkpt>
<trkpt lat="45.812260000" lon="-73.998970000">
<ele>0</ele>
<time>2026-09-04T06:32:10Z</time>
</trkpt>
<trkpt lat="45.812530000" lon="-73.998870000">
<ele>0</ele>
<time>2026-09-04T06:32:11Z</time>
</trkpt>
<trkpt lat="45.812880000" lon="-73.998680000">
<ele>0</ele>
<time>2026-09-04T06:32:12Z</time>
</trkpt>
<trkpt lat="45.813200000" lon="-73.998420000">
<ele>0</ele>
<time>2026-09-04T06:32:13Z</time>
</trkpt>
<trkpt lat="45.813630000" lon="-73.997850000">
<ele>0</ele>
<time>2026-09-04T06:32:14Z</time>
</trkpt>
<trkpt lat="45.813990000" lon="-73.997160000">
<ele>0</ele>
<time>2026-09-04T06:32:15Z</time>
</trkpt>
<trkpt lat="45.814470000" lon="-73.995940000">
<ele>0</ele>
<time>2026-09-04T06:32:16Z</time>
</trkpt>
<trkpt lat="45.814690000" lon="-73.995390000">
<ele>0</ele>
<time>2026-09-04T06:32:17Z</time>
</trkpt>
<trkpt lat="45.814700000" lon="-73.995340000">
<ele>0</ele>
<time>2026-09-04T06:32:18Z</time>
</trkpt>
<trkpt lat="45.814730000" lon="-73.995320000">
<ele>0</ele>
<time>2026-09-04T06:32:19Z</time>
</trkpt>
<trkpt lat="45.814760000" lon="-73.995330000">
<ele>0</ele>
<time>2026-09-04T06:32:20Z</time>
</trkpt>
<trkpt lat="45.814780000" lon="-73.995340000">
<ele>0</ele>
<time>2026-09-04T06:32:21Z</time>
</trkpt>
<trkpt lat="45.814840000" lon="-73.995200000">
<ele>0</ele>
<time>2026-09-04T06:32:22Z</time>
</trkpt>
<trkpt lat="45.814800000" lon="-73.995160000">
<ele>0</ele>
<time>2026-09-04T06:32:23Z</time>
</trkpt>
<trkpt lat="45.814800000" lon="-73.995120000">
<ele>0</ele>
<time>2026-09-04T06:32:24Z</time>
</trkpt>
<trkpt lat="45.814930000" lon="-73.994820000">
<ele>0</ele>
<time>2026-09-04T06:32:25Z</time>
</trkpt>
<trkpt lat="45.814730000" lon="-73.994660000">
<ele>0</ele>
<time>2026-09-04T06:32:26Z</time>
</trkpt>
<trkpt lat="45.814730000" lon="-73.994660000">
<ele>0</ele>
<time>2026-09-04T06:32:27Z</time>
</trkpt>
<trkpt lat="45.814400000" lon="-73.994380000">
<ele>0</ele>
<time>2026-09-04T06:32:28Z</time>
</trkpt>
<trkpt lat="45.814310000" lon="-73.994220000">
<ele>0</ele>
<time>2026-09-04T06:32:29Z</time>
</trkpt>
<trkpt lat="45.814280000" lon="-73.994130000">
<ele>0</ele>
<time>2026-09-04T06:32:30Z</time>
</trkpt>
<trkpt lat="45.814280000" lon="-73.993980000">
<ele>0</ele>
<time>2026-09-04T06:32:31Z</time>
</trkpt>
<trkpt lat="45.814290000" lon="-73.993720000">
<ele>0</ele>
<time>2026-09-04T06:32:32Z</time>
</trkpt>
<trkpt lat="45.814340000" lon="-73.993450000">
<ele>0</ele>
<time>2026-09-04T06:32:33Z</time>
</trkpt>
<trkpt lat="45.814510000" lon="-73.993030000">
<ele>0</ele>
<time>2026-09-04T06:32:34Z</time>
</trkpt>
<trkpt lat="45.814720000" lon="-73.992580000">
<ele>0</ele>
<time>2026-09-04T06:32:35Z</time>
</trkpt>
<trkpt lat="45.814870000" lon="-73.992170000">
<ele>0</ele>
<time>2026-09-04T06:32:36Z</time>
</trkpt>
<trkpt lat="45.814950000" lon="-73.991660000">
<ele>0</ele>
<time>2026-09-04T06:32:37Z</time>
</trkpt>
<trkpt lat="45.815040000" lon="-73.991540000">
<ele>0</ele>
<time>2026-09-04T06:32:38Z</time>
</trkpt>
<trkpt lat="45.815150000" lon="-73.991510000">
<ele>0</ele>
<time>2026-09-04T06:32:39Z</time>
</trkpt>
<trkpt lat="45.815500000" lon="-73.991560000">
<ele>0</ele>
<time>2026-09-04T06:32:40Z</time>
</trkpt>
<trkpt lat="45.815560000" lon="-73.991530000">
<ele>0</ele>
<time>2026-09-04T06:32:41Z</time>
</trkpt>
<trkpt lat="45.815580000" lon="-73.991440000">
<ele>0</ele>
<time>2026-09-04T06:32:42Z</time>
</trkpt>
<trkpt lat="45.815850000" lon="-73.989110000">
<ele>0</ele>
<time>2026-09-04T06:32:43Z</time>
</trkpt>
<trkpt lat="45.815940000" lon="-73.988330000">
<ele>0</ele>
<time>2026-09-04T06:32:44Z</time>
</trkpt>
<trkpt lat="45.816050000" lon="-73.988370000">
<ele>0</ele>
<time>2026-09-04T06:32:45Z</time>
</trkpt>
<trkpt lat="45.816050000" lon="-73.988370000">
<ele>0</ele>
<time>2026-09-04T06:32:46Z</time>
</trkpt>
<trkpt lat="45.816640000" lon="-73.988560000">
<ele>0</ele>
<time>2026-09-04T06:32:47Z</time>
</trkpt>
<trkpt lat="45.816960000" lon="-73.988710000">
<ele>0</ele>
<time>2026-09-04T06:32:48Z</time>
</trkpt>
<trkpt lat="45.817370000" lon="-73.988990000">
<ele>0</ele>
<time>2026-09-04T06:32:49Z</time>
</trkpt>
<trkpt lat="45.817690000" lon="-73.989270000">
<ele>0</ele>
<time>2026-09-04T06:32:50Z</time>
</trkpt>
<trkpt lat="45.818030000" lon="-73.989630000">
<ele>0</ele>
<time>2026-09-04T06:32:51Z</time>
</trkpt>
<trkpt lat="45.818300000" lon="-73.989990000">
<ele>0</ele>
<time>2026-09-04T06:32:52Z</time>
</trkpt>
<trkpt lat="45.818470000" lon="-73.990220000">
<ele>0</ele>
<time>2026-09-04T06:32:53Z</time>
</trkpt>
<trkpt lat="45.818550000" lon="-73.990140000">
<ele>0</ele>
<time>2026-09-04T06:32:54Z</time>
</trkpt>
<trkpt lat="45.818550000" lon="-73.990140000">
<ele>0</ele>
<time>2026-09-04T06:32:55Z</time>
</trkpt>
<trkpt lat="45.818840000" lon="-73.989770000">
<ele>0</ele>
<time>2026-09-04T06:32:56Z</time>
</trkpt>
<trkpt lat="45.819150000" lon="-73.989330000">
<ele>0</ele>
<time>2026-09-04T06:32:57Z</time>
</trkpt>
<trkpt lat="45.819660000" lon="-73.988600000">
<ele>0</ele>
<time>2026-09-04T06:32:58Z</time>
</trkpt>
<trkpt lat="45.820310000" lon="-73.987700000">
<ele>0</ele>
<time>2026-09-04T06:32:59Z</time>
</trkpt>
<trkpt lat="45.820940000" lon="-73.986790000">
<ele>0</ele>
<time>2026-09-04T06:33:00Z</time>
</trkpt>
<trkpt lat="45.822080000" lon="-73.985160000">
<ele>0</ele>
<time>2026-09-04T06:33:01Z</time>
</trkpt>
<trkpt lat="45.822310000" lon="-73.984790000">
<ele>0</ele>
<time>2026-09-04T06:33:02Z</time>
</trkpt>
<trkpt lat="45.822650000" lon="-73.984190000">
<ele>0</ele>
<time>2026-09-04T06:33:03Z</time>
</trkpt>
<trkpt lat="45.822800000" lon="-73.983850000">
<ele>0</ele>
<time>2026-09-04T06:33:04Z</time>
</trkpt>
<trkpt lat="45.822940000" lon="-73.983480000">
<ele>0</ele>
<time>2026-09-04T06:33:05Z</time>
</trkpt>
<trkpt lat="45.822950000" lon="-73.983040000">
<ele>0</ele>
<time>2026-09-04T06:33:06Z</time>
</trkpt>
<trkpt lat="45.822990000" lon="-73.982710000">
<ele>0</ele>
<time>2026-09-04T06:33:07Z</time>
</trkpt>
<trkpt lat="45.823030000" lon="-73.982530000">
<ele>0</ele>
<time>2026-09-04T06:33:08Z</time>
</trkpt>
<trkpt lat="45.823310000" lon="-73.981790000">
<ele>0</ele>
<time>2026-09-04T06:33:09Z</time>
</trkpt>
<trkpt lat="45.823450000" lon="-73.981500000">
<ele>0</ele>
<time>2026-09-04T06:33:10Z</time>
</trkpt>
<trkpt lat="45.823780000" lon="-73.981010000">
<ele>0</ele>
<time>2026-09-04T06:33:11Z</time>
</trkpt>
<trkpt lat="45.824070000" lon="-73.980650000">
<ele>0</ele>
<time>2026-09-04T06:33:12Z</time>
</trkpt>
<trkpt lat="45.824210000" lon="-73.980510000">
<ele>0</ele>
<time>2026-09-04T06:33:13Z</time>
</trkpt>
<trkpt lat="45.824320000" lon="-73.980430000">
<ele>0</ele>
<time>2026-09-04T06:33:14Z</time>
</trkpt>
<trkpt lat="45.824540000" lon="-73.980330000">
<ele>0</ele>
<time>2026-09-04T06:33:15Z</time>
</trkpt>
<trkpt lat="45.824880000" lon="-73.980150000">
<ele>0</ele>
<time>2026-09-04T06:33:16Z</time>
</trkpt>
<trkpt lat="45.824990000" lon="-73.980000000">
<ele>0</ele>
<time>2026-09-04T06:33:17Z</time>
</trkpt>
<trkpt lat="45.825140000" lon="-73.979680000">
<ele>0</ele>
<time>2026-09-04T06:33:18Z</time>
</trkpt>
<trkpt lat="45.825330000" lon="-73.979060000">
<ele>0</ele>
<time>2026-09-04T06:33:19Z</time>
</trkpt>
<trkpt lat="45.825410000" lon="-73.978660000">
<ele>0</ele>
<time>2026-09-04T06:33:20Z</time>
</trkpt>
<trkpt lat="45.825450000" lon="-73.978550000">
<ele>0</ele>
<time>2026-09-04T06:33:21Z</time>
</trkpt>
<trkpt lat="45.825900000" lon="-73.977800000">
<ele>0</ele>
<time>2026-09-04T06:33:22Z</time>
</trkpt>
<trkpt lat="45.826460000" lon="-73.976870000">
<ele>0</ele>
<time>2026-09-04T06:33:23Z</time>
</trkpt>
<trkpt lat="45.827090000" lon="-73.975860000">
<ele>0</ele>
<time>2026-09-04T06:33:24Z</time>
</trkpt>
<trkpt lat="45.827560000" lon="-73.975120000">
<ele>0</ele>
<time>2026-09-04T06:33:25Z</time>
</trkpt>
<trkpt lat="45.828250000" lon="-73.974220000">
<ele>0</ele>
<time>2026-09-04T06:33:26Z</time>
</trkpt>
<trkpt lat="45.829760000" lon="-73.972320000">
<ele>0</ele>
<time>2026-09-04T06:33:27Z</time>
</trkpt>
<trkpt lat="45.830860000" lon="-73.971000000">
<ele>0</ele>
<time>2026-09-04T06:33:28Z</time>
</trkpt>
<trkpt lat="45.831190000" lon="-73.970580000">
<ele>0</ele>
<time>2026-09-04T06:33:29Z</time>
</trkpt>
<trkpt lat="45.831570000" lon="-73.970030000">
<ele>0</ele>
<time>2026-09-04T06:33:30Z</time>
</trkpt>
<trkpt lat="45.831810000" lon="-73.969610000">
<ele>0</ele>
<time>2026-09-04T06:33:31Z</time>
</trkpt>
<trkpt lat="45.832060000" lon="-73.969100000">
<ele>0</ele>
<time>2026-09-04T06:33:32Z</time>
</trkpt>
<trkpt lat="45.832260000" lon="-73.968730000">
<ele>0</ele>
<time>2026-09-04T06:33:33Z</time>
</trkpt>
<trkpt lat="45.832360000" lon="-73.968590000">
<ele>0</ele>
<time>2026-09-04T06:33:34Z</time>
</trkpt>
<trkpt lat="45.832480000" lon="-73.968450000">
<ele>0</ele>
<time>2026-09-04T06:33:35Z</time>
</trkpt>
<trkpt lat="45.832790000" lon="-73.968170000">
<ele>0</ele>
<time>2026-09-04T06:33:36Z</time>
</trkpt>
<trkpt lat="45.833080000" lon="-73.967840000">
<ele>0</ele>
<time>2026-09-04T06:33:37Z</time>
</trkpt>
<trkpt lat="45.833550000" lon="-73.967160000">
<ele>0</ele>
<time>2026-09-04T06:33:38Z</time>
</trkpt>
<trkpt lat="45.834070000" lon="-73.966490000">
<ele>0</ele>
<time>2026-09-04T06:33:39Z</time>
</trkpt>
<trkpt lat="45.834530000" lon="-73.965820000">
<ele>0</ele>
<time>2026-09-04T06:33:40Z</time>
</trkpt>
<trkpt lat="45.835120000" lon="-73.964990000">
<ele>0</ele>
<time>2026-09-04T06:33:41Z</time>
</trkpt>
<trkpt lat="45.836230000" lon="-73.963420000">
<ele>0</ele>
<time>2026-09-04T06:33:42Z</time>
</trkpt>
<trkpt lat="45.836500000" lon="-73.963070000">
<ele>0</ele>
<time>2026-09-04T06:33:43Z</time>
</trkpt>
<trkpt lat="45.836810000" lon="-73.962710000">
<ele>0</ele>
<time>2026-09-04T06:33:44Z</time>
</trkpt>
<trkpt lat="45.837150000" lon="-73.962350000">
<ele>0</ele>
<time>2026-09-04T06:33:45Z</time>
</trkpt>
<trkpt lat="45.837410000" lon="-73.962040000">
<ele>0</ele>
<time>2026-09-04T06:33:46Z</time>
</trkpt>
<trkpt lat="45.837600000" lon="-73.961750000">
<ele>0</ele>
<time>2026-09-04T06:33:47Z</time>
</trkpt>
<trkpt lat="45.837720000" lon="-73.961560000">
<ele>0</ele>
<time>2026-09-04T06:33:48Z</time>
</trkpt>
<trkpt lat="45.838010000" lon="-73.961170000">
<ele>0</ele>
<time>2026-09-04T06:33:49Z</time>
</trkpt>
<trkpt lat="45.838250000" lon="-73.960840000">
<ele>0</ele>
<time>2026-09-04T06:33:50Z</time>
</trkpt>
<trkpt lat="45.838420000" lon="-73.960580000">
<ele>0</ele>
<time>2026-09-04T06:33:51Z</time>
</trkpt>
<trkpt lat="45.838690000" lon="-73.960050000">
<ele>0</ele>
<time>2026-09-04T06:33:52Z</time>
</trkpt>
<trkpt lat="45.838850000" lon="-73.959730000">
<ele>0</ele>
<time>2026-09-04T06:33:53Z</time>
</trkpt>
<trkpt lat="45.838940000" lon="-73.959600000">
<ele>0</ele>
<time>2026-09-04T06:33:54Z</time>
</trkpt>
<trkpt lat="45.839150000" lon="-73.959380000">
<ele>0</ele>
<time>2026-09-04T06:33:55Z</time>
</trkpt>
<trkpt lat="45.839400000" lon="-73.959160000">
<ele>0</ele>
<time>2026-09-04T06:33:56Z</time>
</trkpt>
<trkpt lat="45.839680000" lon="-73.958900000">
<ele>0</ele>
<time>2026-09-04T06:33:57Z</time>
</trkpt>
<trkpt lat="45.839780000" lon="-73.958750000">
<ele>0</ele>
<time>2026-09-04T06:33:58Z</time>
</trkpt>
<trkpt lat="45.839960000" lon="-73.958430000">
<ele>0</ele>
<time>2026-09-04T06:33:59Z</time>
</trkpt>
<trkpt lat="45.840230000" lon="-73.957910000">
<ele>0</ele>
<time>2026-09-04T06:34:00Z</time>
</trkpt>
<trkpt lat="45.840350000" lon="-73.957740000">
<ele>0</ele>
<time>2026-09-04T06:34:01Z</time>
</trkpt>
<trkpt lat="45.840520000" lon="-73.957560000">
<ele>0</ele>
<time>2026-09-04T06:34:02Z</time>
</trkpt>
<trkpt lat="45.840570000" lon="-73.957510000">
<ele>0</ele>
<time>2026-09-04T06:34:03Z</time>
</trkpt>
<trkpt lat="45.840630000" lon="-73.957570000">
<ele>0</ele>
<time>2026-09-04T06:34:04Z</time>
</trkpt>
<trkpt lat="45.840660000" lon="-73.957580000">
<ele>0</ele>
<time>2026-09-04T06:34:05Z</time>
</trkpt>
<trkpt lat="45.840660000" lon="-73.957580000">
<ele>0</ele>
<time>2026-09-04T06:34:06Z</time>
</trkpt>
<trkpt lat="45.841420000" lon="-73.957650000">
<ele>0</ele>
<time>2026-09-04T06:34:07Z</time>
</trkpt>
<trkpt lat="45.841630000" lon="-73.957710000">
<ele>0</ele>
<time>2026-09-04T06:34:08Z</time>
</trkpt>
<trkpt lat="45.841740000" lon="-73.957790000">
<ele>0</ele>
<time>2026-09-04T06:34:09Z</time>
</trkpt>
<trkpt lat="45.841810000" lon="-73.957930000">
<ele>0</ele>
<time>2026-09-04T06:34:10Z</time>
</trkpt>
<trkpt lat="45.841830000" lon="-73.958060000">
<ele>0</ele>
<time>2026-09-04T06:34:11Z</time>
</trkpt>
<trkpt lat="45.841850000" lon="-73.958280000">
<ele>0</ele>
<time>2026-09-04T06:34:12Z</time>
</trkpt>
<trkpt lat="45.841890000" lon="-73.959270000">
<ele>0</ele>
<time>2026-09-04T06:34:13Z</time>
</trkpt>
<trkpt lat="45.841950000" lon="-73.959500000">
<ele>0</ele>
<time>2026-09-04T06:34:14Z</time>
</trkpt>
<trkpt lat="45.842020000" lon="-73.959630000">
<ele>0</ele>
<time>2026-09-04T06:34:15Z</time>
</trkpt>
<trkpt lat="45.842810000" lon="-73.960810000">
<ele>0</ele>
<time>2026-09-04T06:34:16Z</time>
</trkpt>
<trkpt lat="45.843440000" lon="-73.961740000">
<ele>0</ele>
<time>2026-09-04T06:34:17Z</time>
</trkpt>
<trkpt lat="45.843590000" lon="-73.961940000">
<ele>0</ele>
<time>2026-09-04T06:34:18Z</time>
</trkpt>
<trkpt lat="45.843730000" lon="-73.962050000">
<ele>0</ele>
<time>2026-09-04T06:34:19Z</time>
</trkpt>
<trkpt lat="45.843830000" lon="-73.962100000">
<ele>0</ele>
<time>2026-09-04T06:34:20Z</time>
</trkpt>
<trkpt lat="45.843940000" lon="-73.962130000">
<ele>0</ele>
<time>2026-09-04T06:34:21Z</time>
</trkpt>
<trkpt lat="45.844160000" lon="-73.962180000">
<ele>0</ele>
<time>2026-09-04T06:34:22Z</time>
</trkpt>
<trkpt lat="45.844370000" lon="-73.962280000">
<ele>0</ele>
<time>2026-09-04T06:34:23Z</time>
</trkpt>
<trkpt lat="45.844580000" lon="-73.962410000">
<ele>0</ele>
<time>2026-09-04T06:34:24Z</time>
</trkpt>
<trkpt lat="45.844680000" lon="-73.962520000">
<ele>0</ele>
<time>2026-09-04T06:34:25Z</time>
</trkpt>
<trkpt lat="45.844760000" lon="-73.962680000">
<ele>0</ele>
<time>2026-09-04T06:34:26Z</time>
</trkpt>
<trkpt lat="45.844820000" lon="-73.962970000">
<ele>0</ele>
<time>2026-09-04T06:34:27Z</time>
</trkpt>
<trkpt lat="45.844820000" lon="-73.963120000">
<ele>0</ele>
<time>2026-09-04T06:34:28Z</time>
</trkpt>
<trkpt lat="45.844830000" lon="-73.963820000">
<ele>0</ele>
<time>2026-09-04T06:34:29Z</time>
</trkpt>
<trkpt lat="45.844860000" lon="-73.963970000">
<ele>0</ele>
<time>2026-09-04T06:34:30Z</time>
</trkpt>
<trkpt lat="45.844980000" lon="-73.964240000">
<ele>0</ele>
<time>2026-09-04T06:34:31Z</time>
</trkpt>
<trkpt lat="45.845510000" lon="-73.964930000">
<ele>0</ele>
<time>2026-09-04T06:34:32Z</time>
</trkpt>
<trkpt lat="45.845950000" lon="-73.965470000">
<ele>0</ele>
<time>2026-09-04T06:34:33Z</time>
</trkpt>
<trkpt lat="45.846170000" lon="-73.965710000">
<ele>0</ele>
<time>2026-09-04T06:34:34Z</time>
</trkpt>
<trkpt lat="45.846470000" lon="-73.965990000">
<ele>0</ele>
<time>2026-09-04T06:34:35Z</time>
</trkpt>
<trkpt lat="45.846520000" lon="-73.965920000">
<ele>0</ele>
<time>2026-09-04T06:34:36Z</time>
</trkpt>
<trkpt lat="45.846520000" lon="-73.965920000">
<ele>0</ele>
<time>2026-09-04T06:34:37Z</time>
</trkpt>
<trkpt lat="45.846570000" lon="-73.965870000">
<ele>0</ele>
<time>2026-09-04T06:34:38Z</time>
</trkpt>
<trkpt lat="45.846660000" lon="-73.965810000">
<ele>0</ele>
<time>2026-09-04T06:34:39Z</time>
</trkpt>
<trkpt lat="45.846830000" lon="-73.965660000">
<ele>0</ele>
<time>2026-09-04T06:34:40Z</time>
</trkpt>
<trkpt lat="45.847100000" lon="-73.965350000">
<ele>0</ele>
<time>2026-09-04T06:34:41Z</time>
</trkpt>
<trkpt lat="45.847750000" lon="-73.964460000">
<ele>0</ele>
<time>2026-09-04T06:34:42Z</time>
</trkpt>
<trkpt lat="45.848310000" lon="-73.963820000">
<ele>0</ele>
<time>2026-09-04T06:34:43Z</time>
</trkpt>
<trkpt lat="45.848580000" lon="-73.963470000">
<ele>0</ele>
<time>2026-09-04T06:34:44Z</time>
</trkpt>
<trkpt lat="45.848940000" lon="-73.962900000">
<ele>0</ele>
<time>2026-09-04T06:34:45Z</time>
</trkpt>
<trkpt lat="45.849320000" lon="-73.962350000">
<ele>0</ele>
<time>2026-09-04T06:34:46Z</time>
</trkpt>
<trkpt lat="45.850490000" lon="-73.960740000">
<ele>0</ele>
<time>2026-09-04T06:34:47Z</time>
</trkpt>
<trkpt lat="45.851380000" lon="-73.959540000">
<ele>0</ele>
<time>2026-09-04T06:34:48Z</time>
</trkpt>
<trkpt lat="45.851470000" lon="-73.959460000">
<ele>0</ele>
<time>2026-09-04T06:34:49Z</time>
</trkpt>
<trkpt lat="45.851530000" lon="-73.959450000">
<ele>0</ele>
<time>2026-09-04T06:34:50Z</time>
</trkpt>
<trkpt lat="45.851640000" lon="-73.959490000">
<ele>0</ele>
<time>2026-09-04T06:34:51Z</time>
</trkpt>
<trkpt lat="45.851910000" lon="-73.959840000">
<ele>0</ele>
<time>2026-09-04T06:34:52Z</time>
</trkpt>
<trkpt lat="45.852170000" lon="-73.960170000">
<ele>0</ele>
<time>2026-09-04T06:34:53Z</time>
</trkpt>
<trkpt lat="45.852380000" lon="-73.960360000">
<ele>0</ele>
<time>2026-09-04T06:34:54Z</time>
</trkpt>
<trkpt lat="45.852580000" lon="-73.960520000">
<ele>0</ele>
<time>2026-09-04T06:34:55Z</time>
</trkpt>
<trkpt lat="45.853140000" lon="-73.960950000">
<ele>0</ele>
<time>2026-09-04T06:34:56Z</time>
</trkpt>
<trkpt lat="45.853980000" lon="-73.961600000">
<ele>0</ele>
<time>2026-09-04T06:34:57Z</time>
</trkpt>
<trkpt lat="45.854840000" lon="-73.962120000">
<ele>0</ele>
<time>2026-09-04T06:34:58Z</time>
</trkpt>
<trkpt lat="45.855470000" lon="-73.962490000">
<ele>0</ele>
<time>2026-09-04T06:34:59Z</time>
</trkpt>
<trkpt lat="45.855830000" lon="-73.962730000">
<ele>0</ele>
<time>2026-09-04T06:35:00Z</time>
</trkpt>
<trkpt lat="45.856250000" lon="-73.963110000">
<ele>0</ele>
<time>2026-09-04T06:35:01Z</time>
</trkpt>
<trkpt lat="45.857000000" lon="-73.963930000">
<ele>0</ele>
<time>2026-09-04T06:35:02Z</time>
</trkpt>
<trkpt lat="45.857570000" lon="-73.964560000">
<ele>0</ele>
<time>2026-09-04T06:35:03Z</time>
</trkpt>
<trkpt lat="45.857680000" lon="-73.964680000">
<ele>0</ele>
<time>2026-09-04T06:35:04Z</time>
</trkpt>
<trkpt lat="45.858040000" lon="-73.964930000">
<ele>0</ele>
<time>2026-09-04T06:35:05Z</time>
</trkpt>
<trkpt lat="45.858370000" lon="-73.965120000">
<ele>0</ele>
<time>2026-09-04T06:35:06Z</time>
</trkpt>
<trkpt lat="45.859190000" lon="-73.965610000">
<ele>0</ele>
<time>2026-09-04T06:35:07Z</time>
</trkpt>
<trkpt lat="45.859410000" lon="-73.965770000">
<ele>0</ele>
<time>2026-09-04T06:35:08Z</time>
</trkpt>
<trkpt lat="45.859730000" lon="-73.966120000">
<ele>0</ele>
<time>2026-09-04T06:35:09Z</time>
</trkpt>
<trkpt lat="45.859880000" lon="-73.966320000">
<ele>0</ele>
<time>2026-09-04T06:35:10Z</time>
</trkpt>
<trkpt lat="45.860610000" lon="-73.967370000">
<ele>0</ele>
<time>2026-09-04T06:35:11Z</time>
</trkpt>
<trkpt lat="45.860960000" lon="-73.967770000">
<ele>0</ele>
<time>2026-09-04T06:35:12Z</time>
</trkpt>
<trkpt lat="45.861150000" lon="-73.967960000">
<ele>0</ele>
<time>2026-09-04T06:35:13Z</time>
</trkpt>
<trkpt lat="45.861370000" lon="-73.968130000">
<ele>0</ele>
<time>2026-09-04T06:35:14Z</time>
</trkpt>
<trkpt lat="45.861510000" lon="-73.968210000">
<ele>0</ele>
<time>2026-09-04T06:35:15Z</time>
</trkpt>
<trkpt lat="45.861650000" lon="-73.968250000">
<ele>0</ele>
<time>2026-09-04T06:35:16Z</time>
</trkpt>
<trkpt lat="45.862090000" lon="-73.968280000">
<ele>0</ele>
<time>2026-09-04T06:35:17Z</time>
</trkpt>
<trkpt lat="45.862540000" lon="-73.968360000">
<ele>0</ele>
<time>2026-09-04T06:35:18Z</time>
</trkpt>
<trkpt lat="45.863080000" lon="-73.968470000">
<ele>0</ele>
<time>2026-09-04T06:35:19Z</time>
</trkpt>
<trkpt lat="45.864120000" lon="-73.968630000">
<ele>0</ele>
<time>2026-09-04T06:35:20Z</time>
</trkpt>
<trkpt lat="45.864990000" lon="-73.968890000">
<ele>0</ele>
<time>2026-09-04T06:35:21Z</time>
</trkpt>
<trkpt lat="45.865310000" lon="-73.969030000">
<ele>0</ele>
<time>2026-09-04T06:35:22Z</time>
</trkpt>
<trkpt lat="45.865710000" lon="-73.969290000">
<ele>0</ele>
<time>2026-09-04T06:35:23Z</time>
</trkpt>
<trkpt lat="45.865800000" lon="-73.969380000">
<ele>0</ele>
<time>2026-09-04T06:35:24Z</time>
</trkpt>
<trkpt lat="45.865860000" lon="-73.969340000">
<ele>0</ele>
<time>2026-09-04T06:35:25Z</time>
</trkpt>
<trkpt lat="45.865900000" lon="-73.969280000">
<ele>0</ele>
<time>2026-09-04T06:35:26Z</time>
</trkpt>
<trkpt lat="45.865900000" lon="-73.969280000">
<ele>0</ele>
<time>2026-09-04T06:35:27Z</time>
</trkpt>
<trkpt lat="45.866100000" lon="-73.968700000">
<ele>0</ele>
<time>2026-09-04T06:35:28Z</time>
</trkpt>
<trkpt lat="45.866210000" lon="-73.968170000">
<ele>0</ele>
<time>2026-09-04T06:35:29Z</time>
</trkpt>
<trkpt lat="45.866290000" lon="-73.967690000">
<ele>0</ele>
<time>2026-09-04T06:35:30Z</time>
</trkpt>
<trkpt lat="45.866520000" lon="-73.966990000">
<ele>0</ele>
<time>2026-09-04T06:35:31Z</time>
</trkpt>
<trkpt lat="45.866990000" lon="-73.965190000">
<ele>0</ele>
<time>2026-09-04T06:35:32Z</time>
</trkpt>
<trkpt lat="45.867070000" lon="-73.964830000">
<ele>0</ele>
<time>2026-09-04T06:35:33Z</time>
</trkpt>
<trkpt lat="45.867100000" lon="-73.964580000">
<ele>0</ele>
<time>2026-09-04T06:35:34Z</time>
</trkpt>
<trkpt lat="45.867100000" lon="-73.964160000">
<ele>0</ele>
<time>2026-09-04T06:35:35Z</time>
</trkpt>
<trkpt lat="45.867090000" lon="-73.964020000">
<ele>0</ele>
<time>2026-09-04T06:35:36Z</time>
</trkpt>
<trkpt lat="45.867120000" lon="-73.963620000">
<ele>0</ele>
<time>2026-09-04T06:35:37Z</time>
</trkpt>
<trkpt lat="45.867190000" lon="-73.963370000">
<ele>0</ele>
<time>2026-09-04T06:35:38Z</time>
</trkpt>
<trkpt lat="45.867400000" lon="-73.963010000">
<ele>0</ele>
<time>2026-09-04T06:35:39Z</time>
</trkpt>
<trkpt lat="45.867710000" lon="-73.962570000">
<ele>0</ele>
<time>2026-09-04T06:35:40Z</time>
</trkpt>
<trkpt lat="45.867880000" lon="-73.962410000">
<ele>0</ele>
<time>2026-09-04T06:35:41Z</time>
</trkpt>
<trkpt lat="45.868120000" lon="-73.962150000">
<ele>0</ele>
<time>2026-09-04T06:35:42Z</time>
</trkpt>
<trkpt lat="45.868200000" lon="-73.961990000">
<ele>0</ele>
<time>2026-09-04T06:35:43Z</time>
</trkpt>
<trkpt lat="45.868250000" lon="-73.961840000">
<ele>0</ele>
<time>2026-09-04T06:35:44Z</time>
</trkpt>
<trkpt lat="45.868290000" lon="-73.961570000">
<ele>0</ele>
<time>2026-09-04T06:35:45Z</time>
</trkpt>
<trkpt lat="45.868340000" lon="-73.961380000">
<ele>0</ele>
<time>2026-09-04T06:35:46Z</time>
</trkpt>
<trkpt lat="45.868430000" lon="-73.961100000">
<ele>0</ele>
<time>2026-09-04T06:35:47Z</time>
</trkpt>
<trkpt lat="45.868540000" lon="-73.960660000">
<ele>0</ele>
<time>2026-09-04T06:35:48Z</time>
</trkpt>
<trkpt lat="45.868600000" lon="-73.960160000">
<ele>0</ele>
<time>2026-09-04T06:35:49Z</time>
</trkpt>
<trkpt lat="45.868550000" lon="-73.959840000">
<ele>0</ele>
<time>2026-09-04T06:35:50Z</time>
</trkpt>
<trkpt lat="45.868450000" lon="-73.959610000">
<ele>0</ele>
<time>2026-09-04T06:35:51Z</time>
</trkpt>
<trkpt lat="45.868400000" lon="-73.959520000">
<ele>0</ele>
<time>2026-09-04T06:35:52Z</time>
</trkpt>
<trkpt lat="45.868400000" lon="-73.959520000">
<ele>0</ele>
<time>2026-09-04T06:35:53Z</time>
</trkpt>
<trkpt lat="45.868160000" lon="-73.959190000">
<ele>0</ele>
<time>2026-09-04T06:35:54Z</time>
</trkpt>
<trkpt lat="45.867960000" lon="-73.958980000">
<ele>0</ele>
<time>2026-09-04T06:35:55Z</time>
</trkpt>
<trkpt lat="45.867600000" lon="-73.958580000">
<ele>0</ele>
<time>2026-09-04T06:35:56Z</time>
</trkpt>
<trkpt lat="45.867410000" lon="-73.958250000">
<ele>0</ele>
<time>2026-09-04T06:35:57Z</time>
</trkpt>
<trkpt lat="45.867330000" lon="-73.958040000">
<ele>0</ele>
<time>2026-09-04T06:35:58Z</time>
</trkpt>
<trkpt lat="45.867220000" lon="-73.957450000">
<ele>0</ele>
<time>2026-09-04T06:35:59Z</time>
</trkpt>
<trkpt lat="45.867140000" lon="-73.956600000">
<ele>0</ele>
<time>2026-09-04T06:36:00Z</time>
</trkpt>
<trkpt lat="45.867120000" lon="-73.956210000">
<ele>0</ele>
<time>2026-09-04T06:36:01Z</time>
</trkpt>
<trkpt lat="45.867120000" lon="-73.955630000">
<ele>0</ele>
<time>2026-09-04T06:36:02Z</time>
</trkpt>
<trkpt lat="45.867140000" lon="-73.955310000">
<ele>0</ele>
<time>2026-09-04T06:36:03Z</time>
</trkpt>
<trkpt lat="45.867120000" lon="-73.954800000">
<ele>0</ele>
<time>2026-09-04T06:36:04Z</time>
</trkpt>
<trkpt lat="45.867060000" lon="-73.954540000">
<ele>0</ele>
<time>2026-09-04T06:36:05Z</time>
</trkpt>
<trkpt lat="45.866970000" lon="-73.954260000">
<ele>0</ele>
<time>2026-09-04T06:36:06Z</time>
</trkpt>
<trkpt lat="45.866690000" lon="-73.953550000">
<ele>0</ele>
<time>2026-09-04T06:36:07Z</time>
</trkpt>
<trkpt lat="45.866230000" lon="-73.952410000">
<ele>0</ele>
<time>2026-09-04T06:36:08Z</time>
</trkpt>
<trkpt lat="45.865910000" lon="-73.951480000">
<ele>0</ele>
<time>2026-09-04T06:36:09Z</time>
</trkpt>
<trkpt lat="45.865800000" lon="-73.951230000">
<ele>0</ele>
<time>2026-09-04T06:36:10Z</time>
</trkpt>
<trkpt lat="45.865580000" lon="-73.950640000">
<ele>0</ele>
<time>2026-09-04T06:36:11Z</time>
</trkpt>
<trkpt lat="45.865410000" lon="-73.950050000">
<ele>0</ele>
<time>2026-09-04T06:36:12Z</time>
</trkpt>
<trkpt lat="45.865350000" lon="-73.949770000">
<ele>0</ele>
<time>2026-09-04T06:36:13Z</time>
</trkpt>
<trkpt lat="45.865240000" lon="-73.948990000">
<ele>0</ele>
<time>2026-09-04T06:36:14Z</time>
</trkpt>
<trkpt lat="45.865170000" lon="-73.948580000">
<ele>0</ele>
<time>2026-09-04T06:36:15Z</time>
</trkpt>
<trkpt lat="45.865020000" lon="-73.948130000">
<ele>0</ele>
<time>2026-09-04T06:36:16Z</time>
</trkpt>
<trkpt lat="45.864830000" lon="-73.947660000">
<ele>0</ele>
<time>2026-09-04T06:36:17Z</time>
</trkpt>
<trkpt lat="45.864760000" lon="-73.947330000">
<ele>0</ele>
<time>2026-09-04T06:36:18Z</time>
</trkpt>
<trkpt lat="45.864770000" lon="-73.947030000">
<ele>0</ele>
<time>2026-09-04T06:36:19Z</time>
</trkpt>
<trkpt lat="45.864800000" lon="-73.946830000">
<ele>0</ele>
<time>2026-09-04T06:36:20Z</time>
</trkpt>
<trkpt lat="45.864860000" lon="-73.946360000">
<ele>0</ele>
<time>2026-09-04T06:36:21Z</time>
</trkpt>
<trkpt lat="45.864880000" lon="-73.945990000">
<ele>0</ele>
<time>2026-09-04T06:36:22Z</time>
</trkpt>
<trkpt lat="45.864850000" lon="-73.945430000">
<ele>0</ele>
<time>2026-09-04T06:36:23Z</time>
</trkpt>
<trkpt lat="45.864790000" lon="-73.944890000">
<ele>0</ele>
<time>2026-09-04T06:36:24Z</time>
</trkpt>
<trkpt lat="45.864690000" lon="-73.944490000">
<ele>0</ele>
<time>2026-09-04T06:36:25Z</time>
</trkpt>
<trkpt lat="45.864660000" lon="-73.944410000">
<ele>0</ele>
<time>2026-09-04T06:36:26Z</time>
</trkpt>
<trkpt lat="45.864520000" lon="-73.944220000">
<ele>0</ele>
<time>2026-09-04T06:36:27Z</time>
</trkpt>
<trkpt lat="45.864370000" lon="-73.944080000">
<ele>0</ele>
<time>2026-09-04T06:36:28Z</time>
</trkpt>
<trkpt lat="45.864140000" lon="-73.943950000">
<ele>0</ele>
<time>2026-09-04T06:36:29Z</time>
</trkpt>
<trkpt lat="45.863880000" lon="-73.943820000">
<ele>0</ele>
<time>2026-09-04T06:36:30Z</time>
</trkpt>
<trkpt lat="45.863690000" lon="-73.943710000">
<ele>0</ele>
<time>2026-09-04T06:36:31Z</time>
</trkpt>
<trkpt lat="45.863480000" lon="-73.943530000">
<ele>0</ele>
<time>2026-09-04T06:36:32Z</time>
</trkpt>
<trkpt lat="45.863370000" lon="-73.943370000">
<ele>0</ele>
<time>2026-09-04T06:36:33Z</time>
</trkpt>
<trkpt lat="45.863330000" lon="-73.943300000">
<ele>0</ele>
<time>2026-09-04T06:36:34Z</time>
</trkpt>
<trkpt lat="45.863270000" lon="-73.943060000">
<ele>0</ele>
<time>2026-09-04T06:36:35Z</time>
</trkpt>
<trkpt lat="45.863250000" lon="-73.942620000">
<ele>0</ele>
<time>2026-09-04T06:36:36Z</time>
</trkpt>
<trkpt lat="45.863290000" lon="-73.942230000">
<ele>0</ele>
<time>2026-09-04T06:36:37Z</time>
</trkpt>
<trkpt lat="45.863420000" lon="-73.941830000">
<ele>0</ele>
<time>2026-09-04T06:36:38Z</time>
</trkpt>
<trkpt lat="45.863660000" lon="-73.941310000">
<ele>0</ele>
<time>2026-09-04T06:36:39Z</time>
</trkpt>
<trkpt lat="45.863710000" lon="-73.941140000">
<ele>0</ele>
<time>2026-09-04T06:36:40Z</time>
</trkpt>
<trkpt lat="45.863730000" lon="-73.940940000">
<ele>0</ele>
<time>2026-09-04T06:36:41Z</time>
</trkpt>
<trkpt lat="45.863720000" lon="-73.940600000">
<ele>0</ele>
<time>2026-09-04T06:36:42Z</time>
</trkpt>
<trkpt lat="45.863570000" lon="-73.939950000">
<ele>0</ele>
<time>2026-09-04T06:36:43Z</time>
</trkpt>
<trkpt lat="45.863540000" lon="-73.939700000">
<ele>0</ele>
<time>2026-09-04T06:36:44Z</time>
</trkpt>
<trkpt lat="45.863480000" lon="-73.939110000">
<ele>0</ele>
<time>2026-09-04T06:36:45Z</time>
</trkpt>
<trkpt lat="45.863440000" lon="-73.938580000">
<ele>0</ele>
<time>2026-09-04T06:36:46Z</time>
</trkpt>
<trkpt lat="45.863330000" lon="-73.938180000">
<ele>0</ele>
<time>2026-09-04T06:36:47Z</time>
</trkpt>
<trkpt lat="45.862900000" lon="-73.936900000">
<ele>0</ele>
<time>2026-09-04T06:36:48Z</time>
</trkpt>
<trkpt lat="45.862860000" lon="-73.936700000">
<ele>0</ele>
<time>2026-09-04T06:36:49Z</time>
</trkpt>
<trkpt lat="45.862850000" lon="-73.936440000">
<ele>0</ele>
<time>2026-09-04T06:36:50Z</time>
</trkpt>
<trkpt lat="45.862860000" lon="-73.936140000">
<ele>0</ele>
<time>2026-09-04T06:36:51Z</time>
</trkpt>
<trkpt lat="45.862880000" lon="-73.935620000">
<ele>0</ele>
<time>2026-09-04T06:36:52Z</time>
</trkpt>
<trkpt lat="45.862870000" lon="-73.935370000">
<ele>0</ele>
<time>2026-09-04T06:36:53Z</time>
</trkpt>
<trkpt lat="45.862820000" lon="-73.935030000">
<ele>0</ele>
<time>2026-09-04T06:36:54Z</time>
</trkpt>
<trkpt lat="45.862760000" lon="-73.934850000">
<ele>0</ele>
<time>2026-09-04T06:36:55Z</time>
</trkpt>
<trkpt lat="45.862670000" lon="-73.934590000">
<ele>0</ele>
<time>2026-09-04T06:36:56Z</time>
</trkpt>
<trkpt lat="45.862610000" lon="-73.934320000">
<ele>0</ele>
<time>2026-09-04T06:36:57Z</time>
</trkpt>
<trkpt lat="45.862590000" lon="-73.934030000">
<ele>0</ele>
<time>2026-09-04T06:36:58Z</time>
</trkpt>
<trkpt lat="45.862600000" lon="-73.933750000">
<ele>0</ele>
<time>2026-09-04T06:36:59Z</time>
</trkpt>
<trkpt lat="45.862650000" lon="-73.933400000">
<ele>0</ele>
<time>2026-09-04T06:37:00Z</time>
</trkpt>
<trkpt lat="45.862740000" lon="-73.932980000">
<ele>0</ele>
<time>2026-09-04T06:37:01Z</time>
</trkpt>
<trkpt lat="45.862850000" lon="-73.932660000">
<ele>0</ele>
<time>2026-09-04T06:37:02Z</time>
</trkpt>
<trkpt lat="45.863040000" lon="-73.931940000">
<ele>0</ele>
<time>2026-09-04T06:37:03Z</time>
</trkpt>
<trkpt lat="45.863500000" lon="-73.930850000">
<ele>0</ele>
<time>2026-09-04T06:37:04Z</time>
</trkpt>
<trkpt lat="45.863620000" lon="-73.930380000">
<ele>0</ele>
<time>2026-09-04T06:37:05Z</time>
</trkpt>
<trkpt lat="45.863660000" lon="-73.929930000">
<ele>0</ele>
<time>2026-09-04T06:37:06Z</time>
</trkpt>
<trkpt lat="45.863670000" lon="-73.928020000">
<ele>0</ele>
<time>2026-09-04T06:37:07Z</time>
</trkpt>
<trkpt lat="45.863660000" lon="-73.927510000">
<ele>0</ele>
<time>2026-09-04T06:37:08Z</time>
</trkpt>
<trkpt lat="45.863620000" lon="-73.926920000">
<ele>0</ele>
<time>2026-09-04T06:37:09Z</time>
</trkpt>
<trkpt lat="45.863530000" lon="-73.926500000">
<ele>0</ele>
<time>2026-09-04T06:37:10Z</time>
</trkpt>
<trkpt lat="45.863340000" lon="-73.925950000">
<ele>0</ele>
<time>2026-09-04T06:37:11Z</time>
</trkpt>
<trkpt lat="45.863250000" lon="-73.925460000">
<ele>0</ele>
<time>2026-09-04T06:37:12Z</time>
</trkpt>
<trkpt lat="45.863120000" lon="-73.924270000">
<ele>0</ele>
<time>2026-09-04T06:37:13Z</time>
</trkpt>
<trkpt lat="45.863040000" lon="-73.923780000">
<ele>0</ele>
<time>2026-09-04T06:37:14Z</time>
</trkpt>
<trkpt lat="45.863020000" lon="-73.923510000">
<ele>0</ele>
<time>2026-09-04T06:37:15Z</time>
</trkpt>
<trkpt lat="45.863060000" lon="-73.923010000">
<ele>0</ele>
<time>2026-09-04T06:37:16Z</time>
</trkpt>
<trkpt lat="45.863100000" lon="-73.922730000">
<ele>0</ele>
<time>2026-09-04T06:37:17Z</time>
</trkpt>
<trkpt lat="45.863220000" lon="-73.922270000">
<ele>0</ele>
<time>2026-09-04T06:37:18Z</time>
</trkpt>
<trkpt lat="45.863570000" lon="-73.921060000">
<ele>0</ele>
<time>2026-09-04T06:37:19Z</time>
</trkpt>
<trkpt lat="45.863800000" lon="-73.920100000">
<ele>0</ele>
<time>2026-09-04T06:37:20Z</time>
</trkpt>
<trkpt lat="45.863830000" lon="-73.919750000">
<ele>0</ele>
<time>2026-09-04T06:37:21Z</time>
</trkpt>
<trkpt lat="45.863810000" lon="-73.919280000">
<ele>0</ele>
<time>2026-09-04T06:37:22Z</time>
</trkpt>
<trkpt lat="45.863750000" lon="-73.918760000">
<ele>0</ele>
<time>2026-09-04T06:37:23Z</time>
</trkpt>
<trkpt lat="45.863660000" lon="-73.917830000">
<ele>0</ele>
<time>2026-09-04T06:37:24Z</time>
</trkpt>
<trkpt lat="45.863660000" lon="-73.917270000">
<ele>0</ele>
<time>2026-09-04T06:37:25Z</time>
</trkpt>
<trkpt lat="45.863660000" lon="-73.916510000">
<ele>0</ele>
<time>2026-09-04T06:37:26Z</time>
</trkpt>
<trkpt lat="45.863650000" lon="-73.916220000">
<ele>0</ele>
<time>2026-09-04T06:37:27Z</time>
</trkpt>
<trkpt lat="45.863600000" lon="-73.915740000">
<ele>0</ele>
<time>2026-09-04T06:37:28Z</time>
</trkpt>
<trkpt lat="45.863650000" lon="-73.914970000">
<ele>0</ele>
<time>2026-09-04T06:37:29Z</time>
</trkpt>
<trkpt lat="45.863690000" lon="-73.913680000">
<ele>0</ele>
<time>2026-09-04T06:37:30Z</time>
</trkpt>
<trkpt lat="45.863750000" lon="-73.912910000">
<ele>0</ele>
<time>2026-09-04T06:37:31Z</time>
</trkpt>
<trkpt lat="45.863780000" lon="-73.912260000">
<ele>0</ele>
<time>2026-09-04T06:37:32Z</time>
</trkpt>
<trkpt lat="45.863710000" lon="-73.910880000">
<ele>0</ele>
<time>2026-09-04T06:37:33Z</time>
</trkpt>
<trkpt lat="45.863710000" lon="-73.910660000">
<ele>0</ele>
<time>2026-09-04T06:37:34Z</time>
</trkpt>
<trkpt lat="45.863820000" lon="-73.910080000">
<ele>0</ele>
<time>2026-09-04T06:37:35Z</time>
</trkpt>
<trkpt lat="45.863890000" lon="-73.909720000">
<ele>0</ele>
<time>2026-09-04T06:37:36Z</time>
</trkpt>
<trkpt lat="45.864020000" lon="-73.908970000">
<ele>0</ele>
<time>2026-09-04T06:37:37Z</time>
</trkpt>
<trkpt lat="45.864130000" lon="-73.907950000">
<ele>0</ele>
<time>2026-09-04T06:37:38Z</time>
</trkpt>
<trkpt lat="45.864260000" lon="-73.906810000">
<ele>0</ele>
<time>2026-09-04T06:37:39Z</time>
</trkpt>
<trkpt lat="45.864340000" lon="-73.906340000">
<ele>0</ele>
<time>2026-09-04T06:37:40Z</time>
</trkpt>
<trkpt lat="45.864490000" lon="-73.905830000">
<ele>0</ele>
<time>2026-09-04T06:37:41Z</time>
</trkpt>
<trkpt lat="45.864780000" lon="-73.905150000">
<ele>0</ele>
<time>2026-09-04T06:37:42Z</time>
</trkpt>
<trkpt lat="45.865000000" lon="-73.904610000">
<ele>0</ele>
<time>2026-09-04T06:37:43Z</time>
</trkpt>
<trkpt lat="45.865050000" lon="-73.904410000">
<ele>0</ele>
<time>2026-09-04T06:37:44Z</time>
</trkpt>
<trkpt lat="45.865060000" lon="-73.904190000">
<ele>0</ele>
<time>2026-09-04T06:37:45Z</time>
</trkpt>
<trkpt lat="45.865020000" lon="-73.904040000">
<ele>0</ele>
<time>2026-09-04T06:37:46Z</time>
</trkpt>
<trkpt lat="45.864960000" lon="-73.903890000">
<ele>0</ele>
<time>2026-09-04T06:37:47Z</time>
</trkpt>
<trkpt lat="45.865050000" lon="-73.903720000">
<ele>0</ele>
<time>2026-09-04T06:37:48Z</time>
</trkpt>
<trkpt lat="45.865090000" lon="-73.903590000">
<ele>0</ele>
<time>2026-09-04T06:37:49Z</time>
</trkpt>
<trkpt lat="45.865140000" lon="-73.903340000">
<ele>0</ele>
<time>2026-09-04T06:37:50Z</time>
</trkpt>
<trkpt lat="45.865160000" lon="-73.902780000">
<ele>0</ele>
<time>2026-09-04T06:37:51Z</time>
</trkpt>
<trkpt lat="45.865180000" lon="-73.902500000">
<ele>0</ele>
<time>2026-09-04T06:37:52Z</time>
</trkpt>
<trkpt lat="45.865220000" lon="-73.902340000">
<ele>0</ele>
<time>2026-09-04T06:37:53Z</time>
</trkpt>
<trkpt lat="45.865330000" lon="-73.902110000">
<ele>0</ele>
<time>2026-09-04T06:37:54Z</time>
</trkpt>
<trkpt lat="45.865530000" lon="-73.901780000">
<ele>0</ele>
<time>2026-09-04T06:37:55Z</time>
</trkpt>
<trkpt lat="45.865810000" lon="-73.901310000">
<ele>0</ele>
<time>2026-09-04T06:37:56Z</time>
</trkpt>
<trkpt lat="45.866120000" lon="-73.900910000">
<ele>0</ele>
<time>2026-09-04T06:37:57Z</time>
</trkpt>
<trkpt lat="45.866320000" lon="-73.900680000">
<ele>0</ele>
<time>2026-09-04T06:37:58Z</time>
</trkpt>
<trkpt lat="45.866480000" lon="-73.900360000">
<ele>0</ele>
<time>2026-09-04T06:37:59Z</time>
</trkpt>
<trkpt lat="45.866590000" lon="-73.899970000">
<ele>0</ele>
<time>2026-09-04T06:38:00Z</time>
</trkpt>
<trkpt lat="45.866660000" lon="-73.899550000">
<ele>0</ele>
<time>2026-09-04T06:38:01Z</time>
</trkpt>
<trkpt lat="45.866930000" lon="-73.898780000">
<ele>0</ele>
<time>2026-09-04T06:38:02Z</time>
</trkpt>
<trkpt lat="45.867110000" lon="-73.898330000">
<ele>0</ele>
<time>2026-09-04T06:38:03Z</time>
</trkpt>
<trkpt lat="45.867410000" lon="-73.897710000">
<ele>0</ele>
<time>2026-09-04T06:38:04Z</time>
</trkpt>
<trkpt lat="45.867510000" lon="-73.897330000">
<ele>0</ele>
<time>2026-09-04T06:38:05Z</time>
</trkpt>
<trkpt lat="45.867580000" lon="-73.896760000">
<ele>0</ele>
<time>2026-09-04T06:38:06Z</time>
</trkpt>
<trkpt lat="45.867550000" lon="-73.896130000">
<ele>0</ele>
<time>2026-09-04T06:38:07Z</time>
</trkpt>
<trkpt lat="45.867510000" lon="-73.894820000">
<ele>0</ele>
<time>2026-09-04T06:38:08Z</time>
</trkpt>
<trkpt lat="45.867720000" lon="-73.893700000">
<ele>0</ele>
<time>2026-09-04T06:38:09Z</time>
</trkpt>
<trkpt lat="45.867760000" lon="-73.893380000">
<ele>0</ele>
<time>2026-09-04T06:38:10Z</time>
</trkpt>
<trkpt lat="45.867760000" lon="-73.893030000">
<ele>0</ele>
<time>2026-09-04T06:38:11Z</time>
</trkpt>
<trkpt lat="45.867710000" lon="-73.892870000">
<ele>0</ele>
<time>2026-09-04T06:38:12Z</time>
</trkpt>
<trkpt lat="45.867470000" lon="-73.892430000">
<ele>0</ele>
<time>2026-09-04T06:38:13Z</time>
</trkpt>
<trkpt lat="45.867360000" lon="-73.892150000">
<ele>0</ele>
<time>2026-09-04T06:38:14Z</time>
</trkpt>
<trkpt lat="45.867340000" lon="-73.892020000">
<ele>0</ele>
<time>2026-09-04T06:38:15Z</time>
</trkpt>
<trkpt lat="45.867320000" lon="-73.891760000">
<ele>0</ele>
<time>2026-09-04T06:38:16Z</time>
</trkpt>
<trkpt lat="45.867360000" lon="-73.891250000">
<ele>0</ele>
<time>2026-09-04T06:38:17Z</time>
</trkpt>
<trkpt lat="45.867430000" lon="-73.890740000">
<ele>0</ele>
<time>2026-09-04T06:38:18Z</time>
</trkpt>
<trkpt lat="45.867610000" lon="-73.889420000">
<ele>0</ele>
<time>2026-09-04T06:38:19Z</time>
</trkpt>
<trkpt lat="45.867760000" lon="-73.888580000">
<ele>0</ele>
<time>2026-09-04T06:38:20Z</time>
</trkpt>
<trkpt lat="45.867900000" lon="-73.887990000">
<ele>0</ele>
<time>2026-09-04T06:38:21Z</time>
</trkpt>
<trkpt lat="45.868120000" lon="-73.887200000">
<ele>0</ele>
<time>2026-09-04T06:38:22Z</time>
</trkpt>
<trkpt lat="45.868380000" lon="-73.886330000">
<ele>0</ele>
<time>2026-09-04T06:38:23Z</time>
</trkpt>
<trkpt lat="45.868470000" lon="-73.886100000">
<ele>0</ele>
<time>2026-09-04T06:38:24Z</time>
</trkpt>
<trkpt lat="45.868820000" lon="-73.885340000">
<ele>0</ele>
<time>2026-09-04T06:38:25Z</time>
</trkpt>
<trkpt lat="45.869330000" lon="-73.884440000">
<ele>0</ele>
<time>2026-09-04T06:38:26Z</time>
</trkpt>
<trkpt lat="45.871150000" lon="-73.881570000">
<ele>0</ele>
<time>2026-09-04T06:38:27Z</time>
</trkpt>
<trkpt lat="45.871240000" lon="-73.881380000">
<ele>0</ele>
<time>2026-09-04T06:38:28Z</time>
</trkpt>
<trkpt lat="45.871320000" lon="-73.881140000">
<ele>0</ele>
<time>2026-09-04T06:38:29Z</time>
</trkpt>
<trkpt lat="45.871540000" lon="-73.880470000">
<ele>0</ele>
<time>2026-09-04T06:38:30Z</time>
</trkpt>
<trkpt lat="45.871450000" lon="-73.880340000">
<ele>0</ele>
<time>2026-09-04T06:38:31Z</time>
</trkpt>
<trkpt lat="45.871450000" lon="-73.880340000">
<ele>0</ele>
<time>2026-09-04T06:38:32Z</time>
</trkpt>
<trkpt lat="45.870850000" lon="-73.879420000">
<ele>0</ele>
<time>2026-09-04T06:38:33Z</time>
</trkpt>
<trkpt lat="45.870190000" lon="-73.878390000">
<ele>0</ele>
<time>2026-09-04T06:38:34Z</time>
</trkpt>
<trkpt lat="45.869910000" lon="-73.877990000">
<ele>0</ele>
<time>2026-09-04T06:38:35Z</time>
</trkpt>
<trkpt lat="45.869750000" lon="-73.877820000">
<ele>0</ele>
<time>2026-09-04T06:38:36Z</time>
</trkpt>
<trkpt lat="45.869620000" lon="-73.877740000">
<ele>0</ele>
<time>2026-09-04T06:38:37Z</time>
</trkpt>
<trkpt lat="45.869460000" lon="-73.877660000">
<ele>0</ele>
<time>2026-09-04T06:38:38Z</time>
</trkpt>
<trkpt lat="45.869340000" lon="-73.877650000">
<ele>0</ele>
<time>2026-09-04T06:38:39Z</time>
</trkpt>
<trkpt lat="45.869150000" lon="-73.877700000">
<ele>0</ele>
<time>2026-09-04T06:38:40Z</time>
</trkpt>
<trkpt lat="45.869000000" lon="-73.877730000">
<ele>0</ele>
<time>2026-09-04T06:38:41Z</time>
</trkpt>
<trkpt lat="45.869010000" lon="-73.877640000">
<ele>0</ele>
<time>2026-09-04T06:38:42Z</time>
</trkpt>
<trkpt lat="45.869010000" lon="-73.877640000">
<ele>0</ele>
<time>2026-09-04T06:38:43Z</time>
</trkpt>
<trkpt lat="45.869020000" lon="-73.877290000">
<ele>0</ele>
<time>2026-09-04T06:38:44Z</time>
</trkpt>
<trkpt lat="45.869040000" lon="-73.877100000">
<ele>0</ele>
<time>2026-09-04T06:38:45Z</time>
</trkpt>
<trkpt lat="45.869110000" lon="-73.876850000">
<ele>0</ele>
<time>2026-09-04T06:38:46Z</time>
</trkpt>
<trkpt lat="45.869310000" lon="-73.876570000">
<ele>0</ele>
<time>2026-09-04T06:38:47Z</time>
</trkpt>
<trkpt lat="45.869440000" lon="-73.876410000">
<ele>0</ele>
<time>2026-09-04T06:38:48Z</time>
</trkpt>
<trkpt lat="45.869890000" lon="-73.875970000">
<ele>0</ele>
<time>2026-09-04T06:38:49Z</time>
</trkpt>
<trkpt lat="45.870780000" lon="-73.875100000">
<ele>0</ele>
<time>2026-09-04T06:38:50Z</time>
</trkpt>
<trkpt lat="45.871960000" lon="-73.873960000">
<ele>0</ele>
<time>2026-09-04T06:38:51Z</time>
</trkpt>
<trkpt lat="45.872700000" lon="-73.873190000">
<ele>0</ele>
<time>2026-09-04T06:38:52Z</time>
</trkpt>
<trkpt lat="45.873190000" lon="-73.872630000">
<ele>0</ele>
<time>2026-09-04T06:38:53Z</time>
</trkpt>
<trkpt lat="45.873680000" lon="-73.871970000">
<ele>0</ele>
<time>2026-09-04T06:38:54Z</time>
</trkpt>
<trkpt lat="45.874680000" lon="-73.870560000">
<ele>0</ele>
<time>2026-09-04T06:38:55Z</time>
</trkpt>
<trkpt lat="45.875030000" lon="-73.869970000">
<ele>0</ele>
<time>2026-09-04T06:38:56Z</time>
</trkpt>
<trkpt lat="45.875120000" lon="-73.869760000">
<ele>0</ele>
<time>2026-09-04T06:38:57Z</time>
</trkpt>
<trkpt lat="45.875200000" lon="-73.869520000">
<ele>0</ele>
<time>2026-09-04T06:38:58Z</time>
</trkpt>
<trkpt lat="45.875260000" lon="-73.869270000">
<ele>0</ele>
<time>2026-09-04T06:38:59Z</time>
</trkpt>
<trkpt lat="45.875520000" lon="-73.867240000">
<ele>0</ele>
<time>2026-09-04T06:39:00Z</time>
</trkpt>
<trkpt lat="45.875710000" lon="-73.865720000">
<ele>0</ele>
<time>2026-09-04T06:39:01Z</time>
</trkpt>
<trkpt lat="45.875780000" lon="-73.865060000">
<ele>0</ele>
<time>2026-09-04T06:39:02Z</time>
</trkpt>
<trkpt lat="45.875810000" lon="-73.863920000">
<ele>0</ele>
<time>2026-09-04T06:39:03Z</time>
</trkpt>
<trkpt lat="45.875890000" lon="-73.859990000">
<ele>0</ele>
<time>2026-09-04T06:39:04Z</time>
</trkpt>
<trkpt lat="45.875900000" lon="-73.858490000">
<ele>0</ele>
<time>2026-09-04T06:39:05Z</time>
</trkpt>
<trkpt lat="45.875940000" lon="-73.857200000">
<ele>0</ele>
<time>2026-09-04T06:39:06Z</time>
</trkpt>
<trkpt lat="45.875980000" lon="-73.856170000">
<ele>0</ele>
<time>2026-09-04T06:39:07Z</time>
</trkpt>
<trkpt lat="45.876020000" lon="-73.855660000">
<ele>0</ele>
<time>2026-09-04T06:39:08Z</time>
</trkpt>
<trkpt lat="45.876160000" lon="-73.855090000">
<ele>0</ele>
<time>2026-09-04T06:39:09Z</time>
</trkpt>
<trkpt lat="45.876450000" lon="-73.853960000">
<ele>0</ele>
<time>2026-09-04T06:39:10Z</time>
</trkpt>
<trkpt lat="45.876640000" lon="-73.853170000">
<ele>0</ele>
<time>2026-09-04T06:39:11Z</time>
</trkpt>
<trkpt lat="45.876690000" lon="-73.852850000">
<ele>0</ele>
<time>2026-09-04T06:39:12Z</time>
</trkpt>
<trkpt lat="45.876730000" lon="-73.852270000">
<ele>0</ele>
<time>2026-09-04T06:39:13Z</time>
</trkpt>
<trkpt lat="45.876710000" lon="-73.851830000">
<ele>0</ele>
<time>2026-09-04T06:39:14Z</time>
</trkpt>
<trkpt lat="45.876650000" lon="-73.851390000">
<ele>0</ele>
<time>2026-09-04T06:39:15Z</time>
</trkpt>
<trkpt lat="45.876560000" lon="-73.851030000">
<ele>0</ele>
<time>2026-09-04T06:39:16Z</time>
</trkpt>
<trkpt lat="45.876340000" lon="-73.850280000">
<ele>0</ele>
<time>2026-09-04T06:39:17Z</time>
</trkpt>
<trkpt lat="45.876200000" lon="-73.849530000">
<ele>0</ele>
<time>2026-09-04T06:39:18Z</time>
</trkpt>
<trkpt lat="45.876200000" lon="-73.849230000">
<ele>0</ele>
<time>2026-09-04T06:39:19Z</time>
</trkpt>
<trkpt lat="45.876190000" lon="-73.848200000">
<ele>0</ele>
<time>2026-09-04T06:39:20Z</time>
</trkpt>
<trkpt lat="45.876240000" lon="-73.845870000">
<ele>0</ele>
<time>2026-09-04T06:39:21Z</time>
</trkpt>
<trkpt lat="45.876250000" lon="-73.845320000">
<ele>0</ele>
<time>2026-09-04T06:39:22Z</time>
</trkpt>
<trkpt lat="45.876300000" lon="-73.844860000">
<ele>0</ele>
<time>2026-09-04T06:39:23Z</time>
</trkpt>
<trkpt lat="45.876470000" lon="-73.844400000">
<ele>0</ele>
<time>2026-09-04T06:39:24Z</time>
</trkpt>
<trkpt lat="45.876800000" lon="-73.843500000">
<ele>0</ele>
<time>2026-09-04T06:39:25Z</time>
</trkpt>
<trkpt lat="45.876960000" lon="-73.843010000">
<ele>0</ele>
<time>2026-09-04T06:39:26Z</time>
</trkpt>
<trkpt lat="45.877000000" lon="-73.842760000">
<ele>0</ele>
<time>2026-09-04T06:39:27Z</time>
</trkpt>
<trkpt lat="45.877000000" lon="-73.842500000">
<ele>0</ele>
<time>2026-09-04T06:39:28Z</time>
</trkpt>
<trkpt lat="45.876910000" lon="-73.842000000">
<ele>0</ele>
<time>2026-09-04T06:39:29Z</time>
</trkpt>
<trkpt lat="45.876750000" lon="-73.841460000">
<ele>0</ele>
<time>2026-09-04T06:39:30Z</time>
</trkpt>
<trkpt lat="45.876600000" lon="-73.840650000">
<ele>0</ele>
<time>2026-09-04T06:39:31Z</time>
</trkpt>
<trkpt lat="45.876420000" lon="-73.839240000">
<ele>0</ele>
<time>2026-09-04T06:39:32Z</time>
</trkpt>
<trkpt lat="45.876370000" lon="-73.838700000">
<ele>0</ele>
<time>2026-09-04T06:39:33Z</time>
</trkpt>
<trkpt lat="45.876380000" lon="-73.838460000">
<ele>0</ele>
<time>2026-09-04T06:39:34Z</time>
</trkpt>
<trkpt lat="45.876420000" lon="-73.836420000">
<ele>0</ele>
<time>2026-09-04T06:39:35Z</time>
</trkpt>
<trkpt lat="45.876470000" lon="-73.835130000">
<ele>0</ele>
<time>2026-09-04T06:39:36Z</time>
</trkpt>
<trkpt lat="45.876550000" lon="-73.830520000">
<ele>0</ele>
<time>2026-09-04T06:39:37Z</time>
</trkpt>
<trkpt lat="45.876770000" lon="-73.819970000">
<ele>0</ele>
<time>2026-09-04T06:39:38Z</time>
</trkpt>
<trkpt lat="45.876810000" lon="-73.816060000">
<ele>0</ele>
<time>2026-09-04T06:39:39Z</time>
</trkpt>
<trkpt lat="45.876850000" lon="-73.813220000">
<ele>0</ele>
<time>2026-09-04T06:39:40Z</time>
</trkpt>
<trkpt lat="45.876940000" lon="-73.811410000">
<ele>0</ele>
<time>2026-09-04T06:39:41Z</time>
</trkpt>
<trkpt lat="45.877020000" lon="-73.807490000">
<ele>0</ele>
<time>2026-09-04T06:39:42Z</time>
</trkpt>
<trkpt lat="45.877270000" lon="-73.794320000">
<ele>0</ele>
<time>2026-09-04T06:39:43Z</time>
</trkpt>
<trkpt lat="45.877370000" lon="-73.790190000">
<ele>0</ele>
<time>2026-09-04T06:39:44Z</time>
</trkpt>
<trkpt lat="45.877450000" lon="-73.786780000">
<ele>0</ele>
<time>2026-09-04T06:39:45Z</time>
</trkpt>
<trkpt lat="45.877500000" lon="-73.784570000">
<ele>0</ele>
<time>2026-09-04T06:39:46Z</time>
</trkpt>
<trkpt lat="45.877530000" lon="-73.781150000">
<ele>0</ele>
<time>2026-09-04T06:39:47Z</time>
</trkpt>
<trkpt lat="45.877510000" lon="-73.780510000">
<ele>0</ele>
<time>2026-09-04T06:39:48Z</time>
</trkpt>
<trkpt lat="45.877450000" lon="-73.780120000">
<ele>0</ele>
<time>2026-09-04T06:39:49Z</time>
</trkpt>
<trkpt lat="45.877220000" lon="-73.779270000">
<ele>0</ele>
<time>2026-09-04T06:39:50Z</time>
</trkpt>
<trkpt lat="45.877120000" lon="-73.778730000">
<ele>0</ele>
<time>2026-09-04T06:39:51Z</time>
</trkpt>
<trkpt lat="45.877080000" lon="-73.778380000">
<ele>0</ele>
<time>2026-09-04T06:39:52Z</time>
</trkpt>
<trkpt lat="45.877080000" lon="-73.778090000">
<ele>0</ele>
<time>2026-09-04T06:39:53Z</time>
</trkpt>
<trkpt lat="45.877150000" lon="-73.777730000">
<ele>0</ele>
<time>2026-09-04T06:39:54Z</time>
</trkpt>
<trkpt lat="45.877520000" lon="-73.776730000">
<ele>0</ele>
<time>2026-09-04T06:39:55Z</time>
</trkpt>
<trkpt lat="45.877640000" lon="-73.776310000">
<ele>0</ele>
<time>2026-09-04T06:39:56Z</time>
</trkpt>
<trkpt lat="45.877660000" lon="-73.776000000">
<ele>0</ele>
<time>2026-09-04T06:39:57Z</time>
</trkpt>
<trkpt lat="45.878060000" lon="-73.758440000">
<ele>0</ele>
<time>2026-09-04T06:39:58Z</time>
</trkpt>
<trkpt lat="45.878080000" lon="-73.757570000">
<ele>0</ele>
<time>2026-09-04T06:39:59Z</time>
</trkpt>
<trkpt lat="45.878140000" lon="-73.757570000">
<ele>0</ele>
<time>2026-09-04T06:40:00Z</time>
</trkpt>
<trkpt lat="45.878140000" lon="-73.757570000">
<ele>0</ele>
<time>2026-09-04T06:40:01Z</time>
</trkpt>
<trkpt lat="45.879600000" lon="-73.757650000">
<ele>0</ele>
<time>2026-09-04T06:40:02Z</time>
</trkpt>
<trkpt lat="45.883470000" lon="-73.757790000">
<ele>0</ele>
<time>2026-09-04T06:40:03Z</time>
</trkpt>
<trkpt lat="45.888310000" lon="-73.758000000">
<ele>0</ele>
<time>2026-09-04T06:40:04Z</time>
</trkpt>
<trkpt lat="45.888650000" lon="-73.758000000">
<ele>0</ele>
<time>2026-09-04T06:40:05Z</time>
</trkpt>
<trkpt lat="45.889000000" lon="-73.757960000">
<ele>0</ele>
<time>2026-09-04T06:40:06Z</time>
</trkpt>
<trkpt lat="45.889120000" lon="-73.758770000">
<ele>0</ele>
<time>2026-09-04T06:40:07Z</time>
</trkpt>
<trkpt lat="45.889160000" lon="-73.758860000">
<ele>0</ele>
<time>2026-09-04T06:40:08Z</time>
</trkpt>
<trkpt lat="45.889270000" lon="-73.759120000">
<ele>0</ele>
<time>2026-09-04T06:40:09Z</time>
</trkpt>
<trkpt lat="45.889380000" lon="-73.759290000">
<ele>0</ele>
<time>2026-09-04T06:40:10Z</time>
</trkpt>
<trkpt lat="45.890780000" lon="-73.761200000">
<ele>0</ele>
<time>2026-09-04T06:40:11Z</time>
</trkpt>
<trkpt lat="45.891300000" lon="-73.761920000">
<ele>0</ele>
<time>2026-09-04T06:40:12Z</time>
</trkpt>
<trkpt lat="45.891940000" lon="-73.762720000">
<ele>0</ele>
<time>2026-09-04T06:40:13Z</time>
</trkpt>
<trkpt lat="45.892880000" lon="-73.764070000">
<ele>0</ele>
<time>2026-09-04T06:40:14Z</time>
</trkpt>
<trkpt lat="45.893340000" lon="-73.764770000">
<ele>0</ele>
<time>2026-09-04T06:40:15Z</time>
</trkpt>
<trkpt lat="45.893610000" lon="-73.765120000">
<ele>0</ele>
<time>2026-09-04T06:40:16Z</time>
</trkpt>
<trkpt lat="45.893690000" lon="-73.765200000">
<ele>0</ele>
<time>2026-09-04T06:40:17Z</time>
</trkpt>
<trkpt lat="45.893810000" lon="-73.765310000">
<ele>0</ele>
<time>2026-09-04T06:40:18Z</time>
</trkpt>
<trkpt lat="45.894060000" lon="-73.765420000">
<ele>0</ele>
<time>2026-09-04T06:40:19Z</time>
</trkpt>
<trkpt lat="45.894170000" lon="-73.765470000">
<ele>0</ele>
<time>2026-09-04T06:40:20Z</time>
</trkpt>
<trkpt lat="45.894300000" lon="-73.765560000">
<ele>0</ele>
<time>2026-09-04T06:40:21Z</time>
</trkpt>
<trkpt lat="45.894790000" lon="-73.766220000">
<ele>0</ele>
<time>2026-09-04T06:40:22Z</time>
</trkpt>
<trkpt lat="45.895750000" lon="-73.767730000">
<ele>0</ele>
<time>2026-09-04T06:40:23Z</time>
</trkpt>
<trkpt lat="45.896710000" lon="-73.769110000">
<ele>0</ele>
<time>2026-09-04T06:40:24Z</time>
</trkpt>
<trkpt lat="45.897140000" lon="-73.769710000">
<ele>0</ele>
<time>2026-09-04T06:40:25Z</time>
</trkpt>
<trkpt lat="45.897540000" lon="-73.770400000">
<ele>0</ele>
<time>2026-09-04T06:40:26Z</time>
</trkpt>
<trkpt lat="45.897880000" lon="-73.770840000">
<ele>0</ele>
<time>2026-09-04T06:40:27Z</time>
</trkpt>
<trkpt lat="45.898640000" lon="-73.769780000">
<ele>0</ele>
<time>2026-09-04T06:40:28Z</time>
</trkpt>
<trkpt lat="45.899050000" lon="-73.769230000">
<ele>0</ele>
<time>2026-09-04T06:40:29Z</time>
</trkpt>
<trkpt lat="45.899330000" lon="-73.769540000">
<ele>0</ele>
<time>2026-09-04T06:40:30Z</time>
</trkpt>
<trkpt lat="45.899620000" lon="-73.769890000">
<ele>0</ele>
<time>2026-09-04T06:40:31Z</time>
</trkpt>
<trkpt lat="45.899760000" lon="-73.770160000">
<ele>0</ele>
<time>2026-09-04T06:40:32Z</time>
</trkpt>
<trkpt lat="45.899910000" lon="-73.770540000">
<ele>0</ele>
<time>2026-09-04T06:40:33Z</time>
</trkpt>
<trkpt lat="45.900000000" lon="-73.770630000">
<ele>0</ele>
<time>2026-09-04T06:40:34Z</time>
</trkpt>
<trkpt lat="45.900450000" lon="-73.770930000">
<ele>0</ele>
<time>2026-09-04T06:40:35Z</time>
</trkpt>
<trkpt lat="45.901100000" lon="-73.771310000">
<ele>0</ele>
<time>2026-09-04T06:40:36Z</time>
</trkpt>
<trkpt lat="45.901280000" lon="-73.771410000">
<ele>0</ele>
<time>2026-09-04T06:40:37Z</time>
</trkpt>
<trkpt lat="45.901430000" lon="-73.771520000">
<ele>0</ele>
<time>2026-09-04T06:40:38Z</time>
</trkpt>
<trkpt lat="45.901720000" lon="-73.771830000">
<ele>0</ele>
<time>2026-09-04T06:40:39Z</time>
</trkpt>
<trkpt lat="45.901920000" lon="-73.772010000">
<ele>0</ele>
<time>2026-09-04T06:40:40Z</time>
</trkpt>
<trkpt lat="45.902200000" lon="-73.772210000">
<ele>0</ele>
<time>2026-09-04T06:40:41Z</time>
</trkpt>
<trkpt lat="45.902370000" lon="-73.772290000">
<ele>0</ele>
<time>2026-09-04T06:40:42Z</time>
</trkpt>
<trkpt lat="45.902600000" lon="-73.772400000">
<ele>0</ele>
<time>2026-09-04T06:40:43Z</time>
</trkpt>
<trkpt lat="45.902900000" lon="-73.772640000">
<ele>0</ele>
<time>2026-09-04T06:40:44Z</time>
</trkpt>
<trkpt lat="45.903000000" lon="-73.772780000">
<ele>0</ele>
<time>2026-09-04T06:40:45Z</time>
</trkpt>
<trkpt lat="45.903090000" lon="-73.772910000">
<ele>0</ele>
<time>2026-09-04T06:40:46Z</time>
</trkpt>
<trkpt lat="45.903290000" lon="-73.773330000">
<ele>0</ele>
<time>2026-09-04T06:40:47Z</time>
</trkpt>
<trkpt lat="45.903520000" lon="-73.773700000">
<ele>0</ele>
<time>2026-09-04T06:40:48Z</time>
</trkpt>
<trkpt lat="45.903960000" lon="-73.774320000">
<ele>0</ele>
<time>2026-09-04T06:40:49Z</time>
</trkpt>
<trkpt lat="45.904410000" lon="-73.774950000">
<ele>0</ele>
<time>2026-09-04T06:40:50Z</time>
</trkpt>
<trkpt lat="45.904430000" lon="-73.774920000">
<ele>0</ele>
<time>2026-09-04T06:40:51Z</time>
</trkpt>
<trkpt lat="45.904430000" lon="-73.774920000">
<ele>0</ele>
<time>2026-09-04T06:40:52Z</time>
</trkpt>
<trkpt lat="45.904720000" lon="-73.774520000">
<ele>0</ele>
<time>2026-09-04T06:40:53Z</time>
</trkpt>
<trkpt lat="45.904920000" lon="-73.774310000">
<ele>0</ele>
<time>2026-09-04T06:40:54Z</time>
</trkpt>
<trkpt lat="45.905430000" lon="-73.773990000">
<ele>0</ele>
<time>2026-09-04T06:40:55Z</time>
</trkpt>
<trkpt lat="45.905650000" lon="-73.774030000">
<ele>0</ele>
<time>2026-09-04T06:40:56Z</time>
</trkpt>
<trkpt lat="45.905800000" lon="-73.774020000">
<ele>0</ele>
<time>2026-09-04T06:40:57Z</time>
</trkpt>
<trkpt lat="45.905840000" lon="-73.773970000">
<ele>0</ele>
<time>2026-09-04T06:40:58Z</time>
</trkpt>
<trkpt lat="45.905950000" lon="-73.773690000">
<ele>0</ele>
<time>2026-09-04T06:40:59Z</time>
</trkpt>
<trkpt lat="45.906080000" lon="-73.773110000">
<ele>0</ele>
<time>2026-09-04T06:41:00Z</time>
</trkpt>
<trkpt lat="45.906190000" lon="-73.772320000">
<ele>0</ele>
<time>2026-09-04T06:41:01Z</time>
</trkpt>
<trkpt lat="45.906330000" lon="-73.772060000">
<ele>0</ele>
<time>2026-09-04T06:41:02Z</time>
</trkpt>
<trkpt lat="45.906820000" lon="-73.771320000">
<ele>0</ele>
<time>2026-09-04T06:41:03Z</time>
</trkpt>
<trkpt lat="45.906750000" lon="-73.771220000">
<ele>0</ele>
<time>2026-09-04T06:41:04Z</time>
</trkpt>
<trkpt lat="45.906750000" lon="-73.771220000">
<ele>0</ele>
<time>2026-09-04T06:41:05Z</time>
</trkpt>
<trkpt lat="45.904840000" lon="-73.768520000">
<ele>0</ele>
<time>2026-09-04T06:41:06Z</time>
</trkpt>
<trkpt lat="45.903950000" lon="-73.767250000">
<ele>0</ele>
<time>2026-09-04T06:41:07Z</time>
</trkpt>
<trkpt lat="45.902320000" lon="-73.765010000">
<ele>0</ele>
<time>2026-09-04T06:41:08Z</time>
</trkpt>
<trkpt lat="45.901560000" lon="-73.763910000">
<ele>0</ele>
<time>2026-09-04T06:41:09Z</time>
</trkpt>
<trkpt lat="45.901390000" lon="-73.763600000">
<ele>0</ele>
<time>2026-09-04T06:41:10Z</time>
</trkpt>
<trkpt lat="45.901260000" lon="-73.763340000">
<ele>0</ele>
<time>2026-09-04T06:41:11Z</time>
</trkpt>
<trkpt lat="45.900860000" lon="-73.762500000">
<ele>0</ele>
<time>2026-09-04T06:41:12Z</time>
</trkpt>
<trkpt lat="45.900650000" lon="-73.762190000">
<ele>0</ele>
<time>2026-09-04T06:41:13Z</time>
</trkpt>
<trkpt lat="45.900170000" lon="-73.761700000">
<ele>0</ele>
<time>2026-09-04T06:41:14Z</time>
</trkpt>
<trkpt lat="45.899590000" lon="-73.761060000">
<ele>0</ele>
<time>2026-09-04T06:41:15Z</time>
</trkpt>
<trkpt lat="45.899320000" lon="-73.760720000">
<ele>0</ele>
<time>2026-09-04T06:41:16Z</time>
</trkpt>
<trkpt lat="45.898950000" lon="-73.760250000">
<ele>0</ele>
<time>2026-09-04T06:41:17Z</time>
</trkpt>
<trkpt lat="45.898310000" lon="-73.759270000">
<ele>0</ele>
<time>2026-09-04T06:41:18Z</time>
</trkpt>
<trkpt lat="45.897360000" lon="-73.757890000">
<ele>0</ele>
<time>2026-09-04T06:41:19Z</time>
</trkpt>
<trkpt lat="45.896080000" lon="-73.756060000">
<ele>0</ele>
<time>2026-09-04T06:41:20Z</time>
</trkpt>
<trkpt lat="45.895670000" lon="-73.755460000">
<ele>0</ele>
<time>2026-09-04T06:41:21Z</time>
</trkpt>
<trkpt lat="45.895800000" lon="-73.755390000">
<ele>0</ele>
<time>2026-09-04T06:41:22Z</time>
</trkpt>
<trkpt lat="45.895800000" lon="-73.755390000">
<ele>0</ele>
<time>2026-09-04T06:41:23Z</time>
</trkpt>
<trkpt lat="45.895910000" lon="-73.755330000">
<ele>0</ele>
<time>2026-09-04T06:41:24Z</time>
</trkpt>
<trkpt lat="45.896790000" lon="-73.754750000">
<ele>0</ele>
<time>2026-09-04T06:41:25Z</time>
</trkpt>
<trkpt lat="45.897130000" lon="-73.754470000">
<ele>0</ele>
<time>2026-09-04T06:41:26Z</time>
</trkpt>
<trkpt lat="45.897610000" lon="-73.754000000">
<ele>0</ele>
<time>2026-09-04T06:41:27Z</time>
</trkpt>
<trkpt lat="45.898390000" lon="-73.753190000">
<ele>0</ele>
<time>2026-09-04T06:41:28Z</time>
</trkpt>
<trkpt lat="45.899130000" lon="-73.752530000">
<ele>0</ele>
<time>2026-09-04T06:41:30Z</time>
</trkpt>
<trkpt lat="45.900370000" lon="-73.751480000">
<ele>0</ele>
<time>2026-09-04T06:41:31Z</time>
</trkpt>
<trkpt lat="45.901260000" lon="-73.750760000">
<ele>0</ele>
<time>2026-09-04T06:41:32Z</time>
</trkpt>
<trkpt lat="45.901780000" lon="-73.750300000">
<ele>0</ele>
<time>2026-09-04T06:41:33Z</time>
</trkpt>
<trkpt lat="45.902520000" lon="-73.749640000">
<ele>0</ele>
<time>2026-09-04T06:41:34Z</time>
</trkpt>
<trkpt lat="45.903380000" lon="-73.748760000">
<ele>0</ele>
<time>2026-09-04T06:41:35Z</time>
</trkpt>
<trkpt lat="45.905090000" lon="-73.747030000">
<ele>0</ele>
<time>2026-09-04T06:41:36Z</time>
</trkpt>
<trkpt lat="45.905960000" lon="-73.746100000">
<ele>0</ele>
<time>2026-09-04T06:41:37Z</time>
</trkpt>
<trkpt lat="45.906490000" lon="-73.745620000">
<ele>0</ele>
<time>2026-09-04T06:41:38Z</time>
</trkpt>
<trkpt lat="45.908360000" lon="-73.744230000">
<ele>0</ele>
<time>2026-09-04T06:41:39Z</time>
</trkpt>
<trkpt lat="45.908880000" lon="-73.743810000">
<ele>0</ele>
<time>2026-09-04T06:41:40Z</time>
</trkpt>
<trkpt lat="45.909280000" lon="-73.743430000">
<ele>0</ele>
<time>2026-09-04T06:41:41Z</time>
</trkpt>
<trkpt lat="45.909590000" lon="-73.743040000">
<ele>0</ele>
<time>2026-09-04T06:41:42Z</time>
</trkpt>
<trkpt lat="45.910450000" lon="-73.741870000">
<ele>0</ele>
<time>2026-09-04T06:41:43Z</time>
</trkpt>
<trkpt lat="45.911200000" lon="-73.740880000">
<ele>0</ele>
<time>2026-09-04T06:41:44Z</time>
</trkpt>
<trkpt lat="45.911920000" lon="-73.740010000">
<ele>0</ele>
<time>2026-09-04T06:41:45Z</time>
</trkpt>
<trkpt lat="45.912640000" lon="-73.739340000">
<ele>0</ele>
<time>2026-09-04T06:41:46Z</time>
</trkpt>
<trkpt lat="45.912900000" lon="-73.739070000">
<ele>0</ele>
<time>2026-09-04T06:41:47Z</time>
</trkpt>
<trkpt lat="45.913120000" lon="-73.738780000">
<ele>0</ele>
<time>2026-09-04T06:41:48Z</time>
</trkpt>
<trkpt lat="45.913400000" lon="-73.738320000">
<ele>0</ele>
<time>2026-09-04T06:41:49Z</time>
</trkpt>
<trkpt lat="45.914190000" lon="-73.736960000">
<ele>0</ele>
<time>2026-09-04T06:41:50Z</time>
</trkpt>
<trkpt lat="45.914190000" lon="-73.736960000">
<ele>0</ele>
<time>2026-09-04T06:41:51Z</time>
</trkpt>
<trkpt lat="45.914390000" lon="-73.736670000">
<ele>0</ele>
<time>2026-09-04T06:41:52Z</time>
</trkpt>
<trkpt lat="45.914580000" lon="-73.736970000">
<ele>0</ele>
<time>2026-09-04T06:41:53Z</time>
</trkpt>
<trkpt lat="45.915350000" lon="-73.738100000">
<ele>0</ele>
<time>2026-09-04T06:41:54Z</time>
</trkpt>
<trkpt lat="45.915690000" lon="-73.738570000">
<ele>0</ele>
<time>2026-09-04T06:41:55Z</time>
</trkpt>
<trkpt lat="45.915890000" lon="-73.738700000">
<ele>0</ele>
<time>2026-09-04T06:41:56Z</time>
</trkpt>
<trkpt lat="45.916060000" lon="-73.738720000">
<ele>0</ele>
<time>2026-09-04T06:41:57Z</time>
</trkpt>
<trkpt lat="45.916820000" lon="-73.738590000">
<ele>0</ele>
<time>2026-09-04T06:41:58Z</time>
</trkpt>
<trkpt lat="45.917200000" lon="-73.738580000">
<ele>0</ele>
<time>2026-09-04T06:41:59Z</time>
</trkpt>
<trkpt lat="45.917840000" lon="-73.738680000">
<ele>0</ele>
<time>2026-09-04T06:42:00Z</time>
</trkpt>
<trkpt lat="45.918790000" lon="-73.738810000">
<ele>0</ele>
<time>2026-09-04T06:42:01Z</time>
</trkpt>
<trkpt lat="45.919760000" lon="-73.738910000">
<ele>0</ele>
<time>2026-09-04T06:42:02Z</time>
</trkpt>
<trkpt lat="45.924290000" lon="-73.739300000">
<ele>0</ele>
<time>2026-09-04T06:42:03Z</time>
</trkpt>
<trkpt lat="45.924630000" lon="-73.739340000">
<ele>0</ele>
<time>2026-09-04T06:42:04Z</time>
</trkpt>
<trkpt lat="45.924990000" lon="-73.739410000">
<ele>0</ele>
<time>2026-09-04T06:42:05Z</time>
</trkpt>
<trkpt lat="45.925390000" lon="-73.739560000">
<ele>0</ele>
<time>2026-09-04T06:42:06Z</time>
</trkpt>
<trkpt lat="45.925710000" lon="-73.739730000">
<ele>0</ele>
<time>2026-09-04T06:42:07Z</time>
</trkpt>
<trkpt lat="45.926520000" lon="-73.740300000">
<ele>0</ele>
<time>2026-09-04T06:42:08Z</time>
</trkpt>
<trkpt lat="45.927360000" lon="-73.740890000">
<ele>0</ele>
<time>2026-09-04T06:42:09Z</time>
</trkpt>
<trkpt lat="45.927750000" lon="-73.741100000">
<ele>0</ele>
<time>2026-09-04T06:42:10Z</time>
</trkpt>
<trkpt lat="45.928100000" lon="-73.741240000">
<ele>0</ele>
<time>2026-09-04T06:42:11Z</time>
</trkpt>
<trkpt lat="45.928450000" lon="-73.741330000">
<ele>0</ele>
<time>2026-09-04T06:42:12Z</time>
</trkpt>
<trkpt lat="45.928630000" lon="-73.741360000">
<ele>0</ele>
<time>2026-09-04T06:42:13Z</time>
</trkpt>
<trkpt lat="45.929260000" lon="-73.741410000">
<ele>0</ele>
<time>2026-09-04T06:42:14Z</time>
</trkpt>
<trkpt lat="45.930140000" lon="-73.741470000">
<ele>0</ele>
<time>2026-09-04T06:42:15Z</time>
</trkpt>
<trkpt lat="45.930690000" lon="-73.741490000">
<ele>0</ele>
<time>2026-09-04T06:42:16Z</time>
</trkpt>
<trkpt lat="45.931000000" lon="-73.741470000">
<ele>0</ele>
<time>2026-09-04T06:42:17Z</time>
</trkpt>
<trkpt lat="45.931310000" lon="-73.741410000">
<ele>0</ele>
<time>2026-09-04T06:42:18Z</time>
</trkpt>
<trkpt lat="45.931720000" lon="-73.741220000">
<ele>0</ele>
<time>2026-09-04T06:42:19Z</time>
</trkpt>
<trkpt lat="45.932160000" lon="-73.740940000">
<ele>0</ele>
<time>2026-09-04T06:42:20Z</time>
</trkpt>
<trkpt lat="45.932380000" lon="-73.740750000">
<ele>0</ele>
<time>2026-09-04T06:42:21Z</time>
</trkpt>
<trkpt lat="45.932800000" lon="-73.740290000">
<ele>0</ele>
<time>2026-09-04T06:42:22Z</time>
</trkpt>
<trkpt lat="45.934010000" lon="-73.738720000">
<ele>0</ele>
<time>2026-09-04T06:42:23Z</time>
</trkpt>
<trkpt lat="45.934600000" lon="-73.737860000">
<ele>0</ele>
<time>2026-09-04T06:42:24Z</time>
</trkpt>
<trkpt lat="45.935450000" lon="-73.736530000">
<ele>0</ele>
<time>2026-09-04T06:42:25Z</time>
</trkpt>
<trkpt lat="45.937220000" lon="-73.733800000">
<ele>0</ele>
<time>2026-09-04T06:42:26Z</time>
</trkpt>
<trkpt lat="45.940010000" lon="-73.729610000">
<ele>0</ele>
<time>2026-09-04T06:42:27Z</time>
</trkpt>
<trkpt lat="45.940460000" lon="-73.728940000">
<ele>0</ele>
<time>2026-09-04T06:42:28Z</time>
</trkpt>
<trkpt lat="45.940870000" lon="-73.729550000">
<ele>0</ele>
<time>2026-09-04T06:42:29Z</time>
</trkpt>
<trkpt lat="45.941520000" lon="-73.730620000">
<ele>0</ele>
<time>2026-09-04T06:42:30Z</time>
</trkpt>
<trkpt lat="45.941690000" lon="-73.730870000">
<ele>0</ele>
<time>2026-09-04T06:42:31Z</time>
</trkpt>
<trkpt lat="45.942010000" lon="-73.731220000">
<ele>0</ele>
<time>2026-09-04T06:42:32Z</time>
</trkpt>
<trkpt lat="45.942920000" lon="-73.731950000">
<ele>0</ele>
<time>2026-09-04T06:42:33Z</time>
</trkpt>
<trkpt lat="45.943280000" lon="-73.732270000">
<ele>0</ele>
<time>2026-09-04T06:42:34Z</time>
</trkpt>
<trkpt lat="45.943670000" lon="-73.732680000">
<ele>0</ele>
<time>2026-09-04T06:42:35Z</time>
</trkpt>
<trkpt lat="45.944120000" lon="-73.733110000">
<ele>0</ele>
<time>2026-09-04T06:42:36Z</time>
</trkpt>
<trkpt lat="45.944330000" lon="-73.733250000">
<ele>0</ele>
<time>2026-09-04T06:42:37Z</time>
</trkpt>
<trkpt lat="45.944610000" lon="-73.733410000">
<ele>0</ele>
<time>2026-09-04T06:42:38Z</time>
</trkpt>
<trkpt lat="45.944740000" lon="-73.733470000">
<ele>0</ele>
<time>2026-09-04T06:42:39Z</time>
</trkpt>
<trkpt lat="45.945240000" lon="-73.733620000">
<ele>0</ele>
<time>2026-09-04T06:42:40Z</time>
</trkpt>
<trkpt lat="45.946150000" lon="-73.733860000">
<ele>0</ele>
<time>2026-09-04T06:42:41Z</time>
</trkpt>
<trkpt lat="45.946820000" lon="-73.734030000">
<ele>0</ele>
<time>2026-09-04T06:42:42Z</time>
</trkpt>
<trkpt lat="45.947330000" lon="-73.734080000">
<ele>0</ele>
<time>2026-09-04T06:42:43Z</time>
</trkpt>
<trkpt lat="45.947720000" lon="-73.734100000">
<ele>0</ele>
<time>2026-09-04T06:42:44Z</time>
</trkpt>
<trkpt lat="45.948410000" lon="-73.734170000">
<ele>0</ele>
<time>2026-09-04T06:42:45Z</time>
</trkpt>
<trkpt lat="45.949300000" lon="-73.734270000">
<ele>0</ele>
<time>2026-09-04T06:42:46Z</time>
</trkpt>
<trkpt lat="45.949660000" lon="-73.734280000">
<ele>0</ele>
<time>2026-09-04T06:42:47Z</time>
</trkpt>
<trkpt lat="45.951830000" lon="-73.734180000">
<ele>0</ele>
<time>2026-09-04T06:42:48Z</time>
</trkpt>
<trkpt lat="45.952680000" lon="-73.734120000">
<ele>0</ele>
<time>2026-09-04T06:42:49Z</time>
</trkpt>
<trkpt lat="45.953010000" lon="-73.734030000">
<ele>0</ele>
<time>2026-09-04T06:42:50Z</time>
</trkpt>
<trkpt lat="45.953300000" lon="-73.733900000">
<ele>0</ele>
<time>2026-09-04T06:42:51Z</time>
</trkpt>
<trkpt lat="45.953590000" lon="-73.733720000">
<ele>0</ele>
<time>2026-09-04T06:42:52Z</time>
</trkpt>
<trkpt lat="45.953820000" lon="-73.733560000">
<ele>0</ele>
<time>2026-09-04T06:42:53Z</time>
</trkpt>
<trkpt lat="45.954170000" lon="-73.733100000">
<ele>0</ele>
<time>2026-09-04T06:42:54Z</time>
</trkpt>
<trkpt lat="45.954420000" lon="-73.732720000">
<ele>0</ele>
<time>2026-09-04T06:42:55Z</time>
</trkpt>
<trkpt lat="45.954570000" lon="-73.732430000">
<ele>0</ele>
<time>2026-09-04T06:42:56Z</time>
</trkpt>
<trkpt lat="45.954900000" lon="-73.731550000">
<ele>0</ele>
<time>2026-09-04T06:42:57Z</time>
</trkpt>
<trkpt lat="45.955540000" lon="-73.729710000">
<ele>0</ele>
<time>2026-09-04T06:42:58Z</time>
</trkpt>
<trkpt lat="45.955770000" lon="-73.729030000">
<ele>0</ele>
<time>2026-09-04T06:42:59Z</time>
</trkpt>
<trkpt lat="45.956550000" lon="-73.726750000">
<ele>0</ele>
<time>2026-09-04T06:43:00Z</time>
</trkpt>
<trkpt lat="45.957600000" lon="-73.723750000">
<ele>0</ele>
<time>2026-09-04T06:43:01Z</time>
</trkpt>
<trkpt lat="45.958580000" lon="-73.720980000">
<ele>0</ele>
<time>2026-09-04T06:43:02Z</time>
</trkpt>
<trkpt lat="45.960160000" lon="-73.716420000">
<ele>0</ele>
<time>2026-09-04T06:43:03Z</time>
</trkpt>
<trkpt lat="45.960230000" lon="-73.716280000">
<ele>0</ele>
<time>2026-09-04T06:43:04Z</time>
</trkpt>
<trkpt lat="45.960330000" lon="-73.716150000">
<ele>0</ele>
<time>2026-09-04T06:43:05Z</time>
</trkpt>
<trkpt lat="45.960670000" lon="-73.716110000">
<ele>0</ele>
<time>2026-09-04T06:43:06Z</time>
</trkpt>
<trkpt lat="45.961410000" lon="-73.716020000">
<ele>0</ele>
<time>2026-09-04T06:43:07Z</time>
</trkpt>
<trkpt lat="45.961550000" lon="-73.716000000">
<ele>0</ele>
<time>2026-09-04T06:43:08Z</time>
</trkpt>
<trkpt lat="45.961950000" lon="-73.715970000">
<ele>0</ele>
<time>2026-09-04T06:43:09Z</time>
</trkpt>
<trkpt lat="45.961950000" lon="-73.715970000">
<ele>0</ele>
<time>2026-09-04T06:43:10Z</time>
</trkpt>
<trkpt lat="45.964190000" lon="-73.715800000">
<ele>0</ele>
<time>2026-09-04T06:43:11Z</time>
</trkpt>
<trkpt lat="45.964550000" lon="-73.715780000">
<ele>0</ele>
<time>2026-09-04T06:43:12Z</time>
</trkpt>
<trkpt lat="45.964540000" lon="-73.715700000">
<ele>0</ele>
<time>2026-09-04T06:43:13Z</time>
</trkpt>
<trkpt lat="45.964540000" lon="-73.715700000">
<ele>0</ele>
<time>2026-09-04T06:43:14Z</time>
</trkpt>
<trkpt lat="45.964500000" lon="-73.714380000">
<ele>0</ele>
<time>2026-09-04T06:43:15Z</time>
</trkpt>
<trkpt lat="45.964500000" lon="-73.714180000">
<ele>0</ele>
<time>2026-09-04T06:43:16Z</time>
</trkpt>
<trkpt lat="45.964540000" lon="-73.713840000">
<ele>0</ele>
<time>2026-09-04T06:43:17Z</time>
</trkpt>
<trkpt lat="45.964570000" lon="-73.713870000">
<ele>0</ele>
<time>2026-09-04T06:43:18Z</time>
</trkpt>
<trkpt lat="45.964570000" lon="-73.713870000">
<ele>0</ele>
<time>2026-09-04T06:43:19Z</time>
</trkpt>
<trkpt lat="45.965110000" lon="-73.714300000">
<ele>0</ele>
<time>2026-09-04T06:43:20Z</time>
</trkpt>
<trkpt lat="45.966190000" lon="-73.715250000">
<ele>0</ele>
<time>2026-09-04T06:43:21Z</time>
</trkpt>
<trkpt lat="45.966820000" lon="-73.715760000">
<ele>0</ele>
<time>2026-09-04T06:43:22Z</time>
</trkpt>
<trkpt lat="45.967290000" lon="-73.716100000">
<ele>0</ele>
<time>2026-09-04T06:43:23Z</time>
</trkpt>
<trkpt lat="45.967930000" lon="-73.716480000">
<ele>0</ele>
<time>2026-09-04T06:43:24Z</time>
</trkpt>
<trkpt lat="45.968120000" lon="-73.716570000">
<ele>0</ele>
<time>2026-09-04T06:43:25Z</time>
</trkpt>
<trkpt lat="45.968430000" lon="-73.716600000">
<ele>0</ele>
<time>2026-09-04T06:43:26Z</time>
</trkpt>
<trkpt lat="45.968550000" lon="-73.716610000">
<ele>0</ele>
<time>2026-09-04T06:43:27Z</time>
</trkpt>
<trkpt lat="45.968980000" lon="-73.716590000">
<ele>0</ele>
<time>2026-09-04T06:43:28Z</time>
</trkpt>
<trkpt lat="45.968990000" lon="-73.716480000">
<ele>0</ele>
<time>2026-09-04T06:43:29Z</time>
</trkpt>
<trkpt lat="45.968990000" lon="-73.716470000">
<ele>0</ele>
<time>2026-09-04T06:43:30Z</time>
</trkpt>
<trkpt lat="45.968990000" lon="-73.716470000">
<ele>0</ele>
<time>2026-09-04T06:43:31Z</time>
</trkpt>
<trkpt lat="45.969040000" lon="-73.716260000">
<ele>0</ele>
<time>2026-09-04T06:43:32Z</time>
</trkpt>
<trkpt lat="45.969110000" lon="-73.716060000">
<ele>0</ele>
<time>2026-09-04T06:43:33Z</time>
</trkpt>
<trkpt lat="45.969160000" lon="-73.716080000">
<ele>0</ele>
<time>2026-09-04T06:43:34Z</time>
</trkpt>
<trkpt lat="45.969160000" lon="-73.716080000">
<ele>0</ele>
<time>2026-09-04T06:43:35Z</time>
</trkpt>
<trkpt lat="45.969390000" lon="-73.716180000">
<ele>0</ele>
<time>2026-09-04T06:43:36Z</time>
</trkpt>
<trkpt lat="45.969750000" lon="-73.716290000">
<ele>0</ele>
<time>2026-09-04T06:43:37Z</time>
</trkpt>
<trkpt lat="45.970160000" lon="-73.716350000">
<ele>0</ele>
<time>2026-09-04T06:43:38Z</time>
</trkpt>
<trkpt lat="45.970410000" lon="-73.716360000">
<ele>0</ele>
<time>2026-09-04T06:43:39Z</time>
</trkpt>
<trkpt lat="45.972390000" lon="-73.716180000">
<ele>0</ele>
<time>2026-09-04T06:43:40Z</time>
</trkpt>
<trkpt lat="45.973360000" lon="-73.716100000">
<ele>0</ele>
<time>2026-09-04T06:43:41Z</time>
</trkpt>
<trkpt lat="45.974390000" lon="-73.716010000">
<ele>0</ele>
<time>2026-09-04T06:43:42Z</time>
</trkpt>
<trkpt lat="45.975030000" lon="-73.716010000">
<ele>0</ele>
<time>2026-09-04T06:43:43Z</time>
</trkpt>
<trkpt lat="45.975630000" lon="-73.716100000">
<ele>0</ele>
<time>2026-09-04T06:43:44Z</time>
</trkpt>
<trkpt lat="45.976220000" lon="-73.716260000">
<ele>0</ele>
<time>2026-09-04T06:43:45Z</time>
</trkpt>
<trkpt lat="45.977000000" lon="-73.716550000">
<ele>0</ele>
<time>2026-09-04T06:43:46Z</time>
</trkpt>
<trkpt lat="45.977410000" lon="-73.716720000">
<ele>0</ele>
<time>2026-09-04T06:43:47Z</time>
</trkpt>
<trkpt lat="45.979010000" lon="-73.717420000">
<ele>0</ele>
<time>2026-09-04T06:43:48Z</time>
</trkpt>
<trkpt lat="45.981710000" lon="-73.718580000">
<ele>0</ele>
<time>2026-09-04T06:43:49Z</time>
</trkpt>
<trkpt lat="45.983620000" lon="-73.719370000">
<ele>0</ele>
<time>2026-09-04T06:43:50Z</time>
</trkpt>
<trkpt lat="45.984620000" lon="-73.719780000">
<ele>0</ele>
<time>2026-09-04T06:43:51Z</time>
</trkpt>
<trkpt lat="45.984970000" lon="-73.719910000">
<ele>0</ele>
<time>2026-09-04T06:43:52Z</time>
</trkpt>
<trkpt lat="45.985500000" lon="-73.720040000">
<ele>0</ele>
<time>2026-09-04T06:43:53Z</time>
</trkpt>
<trkpt lat="45.986200000" lon="-73.720140000">
<ele>0</ele>
<time>2026-09-04T06:43:54Z</time>
</trkpt>
<trkpt lat="45.986680000" lon="-73.720160000">
<ele>0</ele>
<time>2026-09-04T06:43:55Z</time>
</trkpt>
<trkpt lat="45.987100000" lon="-73.720130000">
<ele>0</ele>
<time>2026-09-04T06:43:56Z</time>
</trkpt>
<trkpt lat="45.987820000" lon="-73.720030000">
<ele>0</ele>
<time>2026-09-04T06:43:57Z</time>
</trkpt>
<trkpt lat="45.989120000" lon="-73.719780000">
<ele>0</ele>
<time>2026-09-04T06:43:58Z</time>
</trkpt>
<trkpt lat="45.991660000" lon="-73.719350000">
<ele>0</ele>
<time>2026-09-04T06:43:59Z</time>
</trkpt>
<trkpt lat="45.992430000" lon="-73.719210000">
<ele>0</ele>
<time>2026-09-04T06:44:00Z</time>
</trkpt>
<trkpt lat="45.992780000" lon="-73.719180000">
<ele>0</ele>
<time>2026-09-04T06:44:01Z</time>
</trkpt>
<trkpt lat="45.993390000" lon="-73.719170000">
<ele>0</ele>
<time>2026-09-04T06:44:02Z</time>
</trkpt>
<trkpt lat="45.993810000" lon="-73.719220000">
<ele>0</ele>
<time>2026-09-04T06:44:03Z</time>
</trkpt>
<trkpt lat="45.994110000" lon="-73.719270000">
<ele>0</ele>
<time>2026-09-04T06:44:04Z</time>
</trkpt>
<trkpt lat="45.994560000" lon="-73.719390000">
<ele>0</ele>
<time>2026-09-04T06:44:05Z</time>
</trkpt>
<trkpt lat="45.994890000" lon="-73.719490000">
<ele>0</ele>
<time>2026-09-04T06:44:06Z</time>
</trkpt>
<trkpt lat="45.995280000" lon="-73.719650000">
<ele>0</ele>
<time>2026-09-04T06:44:07Z</time>
</trkpt>
<trkpt lat="45.996070000" lon="-73.720060000">
<ele>0</ele>
<time>2026-09-04T06:44:08Z</time>
</trkpt>
<trkpt lat="45.998980000" lon="-73.721800000">
<ele>0</ele>
<time>2026-09-04T06:44:09Z</time>
</trkpt>
<trkpt lat="45.999430000" lon="-73.722010000">
<ele>0</ele>
<time>2026-09-04T06:44:10Z</time>
</trkpt>
<trkpt lat="45.999650000" lon="-73.722070000">
<ele>0</ele>
<time>2026-09-04T06:44:11Z</time>
</trkpt>
<trkpt lat="45.999890000" lon="-73.722120000">
<ele>0</ele>
<time>2026-09-04T06:44:12Z</time>
</trkpt>
<trkpt lat="46.000210000" lon="-73.722110000">
<ele>0</ele>
<time>2026-09-04T06:44:13Z</time>
</trkpt>
<trkpt lat="46.000380000" lon="-73.722100000">
<ele>0</ele>
<time>2026-09-04T06:44:14Z</time>
</trkpt>
<trkpt lat="46.000480000" lon="-73.722020000">
<ele>0</ele>
<time>2026-09-04T06:44:15Z</time>
</trkpt>
<trkpt lat="46.000540000" lon="-73.721990000">
<ele>0</ele>
<time>2026-09-04T06:44:16Z</time>
</trkpt>
<trkpt lat="46.000900000" lon="-73.721840000">
<ele>0</ele>
<time>2026-09-04T06:44:17Z</time>
</trkpt>
<trkpt lat="46.000950000" lon="-73.721810000">
<ele>0</ele>
<time>2026-09-04T06:44:18Z</time>
</trkpt>
<trkpt lat="46.000950000" lon="-73.721810000">
<ele>0</ele>
<time>2026-09-04T06:44:19Z</time>
</trkpt>
<trkpt lat="46.001270000" lon="-73.721580000">
<ele>0</ele>
<time>2026-09-04T06:44:20Z</time>
</trkpt>
<trkpt lat="46.001580000" lon="-73.721260000">
<ele>0</ele>
<time>2026-09-04T06:44:21Z</time>
</trkpt>
<trkpt lat="46.001660000" lon="-73.721170000">
<ele>0</ele>
<time>2026-09-04T06:44:22Z</time>
</trkpt>
<trkpt lat="46.001890000" lon="-73.721020000">
<ele>0</ele>
<time>2026-09-04T06:44:23Z</time>
</trkpt>
<trkpt lat="46.002400000" lon="-73.720290000">
<ele>0</ele>
<time>2026-09-04T06:44:24Z</time>
</trkpt>
<trkpt lat="46.004020000" lon="-73.717990000">
<ele>0</ele>
<time>2026-09-04T06:44:25Z</time>
</trkpt>
<trkpt lat="46.005590000" lon="-73.715770000">
<ele>0</ele>
<time>2026-09-04T06:44:26Z</time>
</trkpt>
<trkpt lat="46.006800000" lon="-73.714070000">
<ele>0</ele>
<time>2026-09-04T06:44:27Z</time>
</trkpt>
<trkpt lat="46.007140000" lon="-73.713660000">
<ele>0</ele>
<time>2026-09-04T06:44:28Z</time>
</trkpt>
<trkpt lat="46.007550000" lon="-73.713250000">
<ele>0</ele>
<time>2026-09-04T06:44:29Z</time>
</trkpt>
<trkpt lat="46.008030000" lon="-73.712840000">
<ele>0</ele>
<time>2026-09-04T06:44:30Z</time>
</trkpt>
<trkpt lat="46.008710000" lon="-73.712400000">
<ele>0</ele>
<time>2026-09-04T06:44:31Z</time>
</trkpt>
<trkpt lat="46.009180000" lon="-73.712160000">
<ele>0</ele>
<time>2026-09-04T06:44:32Z</time>
</trkpt>
<trkpt lat="46.009560000" lon="-73.712010000">
<ele>0</ele>
<time>2026-09-04T06:44:33Z</time>
</trkpt>
<trkpt lat="46.009880000" lon="-73.711930000">
<ele>0</ele>
<time>2026-09-04T06:44:34Z</time>
</trkpt>
<trkpt lat="46.010330000" lon="-73.711830000">
<ele>0</ele>
<time>2026-09-04T06:44:35Z</time>
</trkpt>
<trkpt lat="46.010900000" lon="-73.711790000">
<ele>0</ele>
<time>2026-09-04T06:44:36Z</time>
</trkpt>
<trkpt lat="46.011150000" lon="-73.711800000">
<ele>0</ele>
<time>2026-09-04T06:44:37Z</time>
</trkpt>
<trkpt lat="46.011500000" lon="-73.711840000">
<ele>0</ele>
<time>2026-09-04T06:44:38Z</time>
</trkpt>
<trkpt lat="46.011850000" lon="-73.711900000">
<ele>0</ele>
<time>2026-09-04T06:44:39Z</time>
</trkpt>
<trkpt lat="46.012210000" lon="-73.711990000">
<ele>0</ele>
<time>2026-09-04T06:44:40Z</time>
</trkpt>
<trkpt lat="46.013090000" lon="-73.712250000">
<ele>0</ele>
<time>2026-09-04T06:44:41Z</time>
</trkpt>
<trkpt lat="46.015450000" lon="-73.712940000">
<ele>0</ele>
<time>2026-09-04T06:44:42Z</time>
</trkpt>
<trkpt lat="46.016370000" lon="-73.713180000">
<ele>0</ele>
<time>2026-09-04T06:44:43Z</time>
</trkpt>
<trkpt lat="46.016730000" lon="-73.713250000">
<ele>0</ele>
<time>2026-09-04T06:44:44Z</time>
</trkpt>
<trkpt lat="46.017120000" lon="-73.713300000">
<ele>0</ele>
<time>2026-09-04T06:44:45Z</time>
</trkpt>
<trkpt lat="46.017330000" lon="-73.713300000">
<ele>0</ele>
<time>2026-09-04T06:44:46Z</time>
</trkpt>
<trkpt lat="46.018110000" lon="-73.713280000">
<ele>0</ele>
<time>2026-09-04T06:44:47Z</time>
</trkpt>
<trkpt lat="46.018560000" lon="-73.713220000">
<ele>0</ele>
<time>2026-09-04T06:44:48Z</time>
</trkpt>
<trkpt lat="46.018950000" lon="-73.713130000">
<ele>0</ele>
<time>2026-09-04T06:44:49Z</time>
</trkpt>
<trkpt lat="46.020070000" lon="-73.712820000">
<ele>0</ele>
<time>2026-09-04T06:44:50Z</time>
</trkpt>
<trkpt lat="46.023000000" lon="-73.711980000">
<ele>0</ele>
<time>2026-09-04T06:44:51Z</time>
</trkpt>
<trkpt lat="46.024030000" lon="-73.711690000">
<ele>0</ele>
<time>2026-09-04T06:44:52Z</time>
</trkpt>
<trkpt lat="46.024450000" lon="-73.711610000">
<ele>0</ele>
<time>2026-09-04T06:44:53Z</time>
</trkpt>
<trkpt lat="46.024670000" lon="-73.711600000">
<ele>0</ele>
<time>2026-09-04T06:44:54Z</time>
</trkpt>
<trkpt lat="46.024920000" lon="-73.711630000">
<ele>0</ele>
<time>2026-09-04T06:44:55Z</time>
</trkpt>
<trkpt lat="46.025270000" lon="-73.711720000">
<ele>0</ele>
<time>2026-09-04T06:44:56Z</time>
</trkpt>
<trkpt lat="46.026690000" lon="-73.712360000">
<ele>0</ele>
<time>2026-09-04T06:44:57Z</time>
</trkpt>
<trkpt lat="46.027130000" lon="-73.712480000">
<ele>0</ele>
<time>2026-09-04T06:44:58Z</time>
</trkpt>
<trkpt lat="46.027330000" lon="-73.712520000">
<ele>0</ele>
<time>2026-09-04T06:44:59Z</time>
</trkpt>
<trkpt lat="46.027560000" lon="-73.712510000">
<ele>0</ele>
<time>2026-09-04T06:45:00Z</time>
</trkpt>
<trkpt lat="46.027820000" lon="-73.712470000">
<ele>0</ele>
<time>2026-09-04T06:45:01Z</time>
</trkpt>
<trkpt lat="46.027990000" lon="-73.712430000">
<ele>0</ele>
<time>2026-09-04T06:45:02Z</time>
</trkpt>
<trkpt lat="46.028220000" lon="-73.712350000">
<ele>0</ele>
<time>2026-09-04T06:45:03Z</time>
</trkpt>
<trkpt lat="46.028500000" lon="-73.712190000">
<ele>0</ele>
<time>2026-09-04T06:45:04Z</time>
</trkpt>
<trkpt lat="46.028810000" lon="-73.711960000">
<ele>0</ele>
<time>2026-09-04T06:45:05Z</time>
</trkpt>
<trkpt lat="46.029310000" lon="-73.711420000">
<ele>0</ele>
<time>2026-09-04T06:45:06Z</time>
</trkpt>
<trkpt lat="46.030290000" lon="-73.710180000">
<ele>0</ele>
<time>2026-09-04T06:45:07Z</time>
</trkpt>
<trkpt lat="46.030440000" lon="-73.709970000">
<ele>0</ele>
<time>2026-09-04T06:45:08Z</time>
</trkpt>
<trkpt lat="46.030780000" lon="-73.709370000">
<ele>0</ele>
<time>2026-09-04T06:45:09Z</time>
</trkpt>
<trkpt lat="46.031110000" lon="-73.708640000">
<ele>0</ele>
<time>2026-09-04T06:45:10Z</time>
</trkpt>
<trkpt lat="46.031460000" lon="-73.707840000">
<ele>0</ele>
<time>2026-09-04T06:45:11Z</time>
</trkpt>
<trkpt lat="46.032650000" lon="-73.705090000">
<ele>0</ele>
<time>2026-09-04T06:45:12Z</time>
</trkpt>
<trkpt lat="46.032980000" lon="-73.704390000">
<ele>0</ele>
<time>2026-09-04T06:45:13Z</time>
</trkpt>
<trkpt lat="46.033330000" lon="-73.703850000">
<ele>0</ele>
<time>2026-09-04T06:45:14Z</time>
</trkpt>
<trkpt lat="46.033710000" lon="-73.703440000">
<ele>0</ele>
<time>2026-09-04T06:45:15Z</time>
</trkpt>
<trkpt lat="46.034050000" lon="-73.703160000">
<ele>0</ele>
<time>2026-09-04T06:45:16Z</time>
</trkpt>
<trkpt lat="46.034330000" lon="-73.702970000">
<ele>0</ele>
<time>2026-09-04T06:45:17Z</time>
</trkpt>
<trkpt lat="46.034990000" lon="-73.702550000">
<ele>0</ele>
<time>2026-09-04T06:45:18Z</time>
</trkpt>
<trkpt lat="46.035370000" lon="-73.702290000">
<ele>0</ele>
<time>2026-09-04T06:45:19Z</time>
</trkpt>
<trkpt lat="46.035770000" lon="-73.701940000">
<ele>0</ele>
<time>2026-09-04T06:45:20Z</time>
</trkpt>
<trkpt lat="46.035950000" lon="-73.701730000">
<ele>0</ele>
<time>2026-09-04T06:45:21Z</time>
</trkpt>
<trkpt lat="46.036420000" lon="-73.701080000">
<ele>0</ele>
<time>2026-09-04T06:45:22Z</time>
</trkpt>
<trkpt lat="46.037120000" lon="-73.700060000">
<ele>0</ele>
<time>2026-09-04T06:45:23Z</time>
</trkpt>
<trkpt lat="46.037720000" lon="-73.699200000">
<ele>0</ele>
<time>2026-09-04T06:45:24Z</time>
</trkpt>
<trkpt lat="46.038680000" lon="-73.697780000">
<ele>0</ele>
<time>2026-09-04T06:45:25Z</time>
</trkpt>
<trkpt lat="46.039120000" lon="-73.697120000">
<ele>0</ele>
<time>2026-09-04T06:45:26Z</time>
</trkpt>
<trkpt lat="46.039220000" lon="-73.696960000">
<ele>0</ele>
<time>2026-09-04T06:45:27Z</time>
</trkpt>
<trkpt lat="46.039280000" lon="-73.697050000">
<ele>0</ele>
<time>2026-09-04T06:45:28Z</time>
</trkpt>
<trkpt lat="46.039280000" lon="-73.697050000">
<ele>0</ele>
<time>2026-09-04T06:45:29Z</time>
</trkpt>
<trkpt lat="46.040410000" lon="-73.698610000">
<ele>0</ele>
<time>2026-09-04T06:45:30Z</time>
</trkpt>
<trkpt lat="46.041970000" lon="-73.700900000">
<ele>0</ele>
<time>2026-09-04T06:45:31Z</time>
</trkpt>
<trkpt lat="46.042010000" lon="-73.700840000">
<ele>0</ele>
<time>2026-09-04T06:45:32Z</time>
</trkpt>
<trkpt lat="46.042010000" lon="-73.700840000">
<ele>0</ele>
<time>2026-09-04T06:45:33Z</time>
</trkpt>
<trkpt lat="46.043120000" lon="-73.699310000">
<ele>0</ele>
<time>2026-09-04T06:45:34Z</time>
</trkpt>
<trkpt lat="46.043970000" lon="-73.698120000">
<ele>0</ele>
<time>2026-09-04T06:45:35Z</time>
</trkpt>
<trkpt lat="46.044780000" lon="-73.697000000">
<ele>0</ele>
<time>2026-09-04T06:45:36Z</time>
</trkpt>
<trkpt lat="46.044880000" lon="-73.696920000">
<ele>0</ele>
<time>2026-09-04T06:45:37Z</time>
</trkpt>
<trkpt lat="46.045060000" lon="-73.696870000">
<ele>0</ele>
<time>2026-09-04T06:45:38Z</time>
</trkpt>
<trkpt lat="46.045280000" lon="-73.696890000">
<ele>0</ele>
<time>2026-09-04T06:45:39Z</time>
</trkpt>
<trkpt lat="46.045920000" lon="-73.697000000">
<ele>0</ele>
<time>2026-09-04T06:45:40Z</time>
</trkpt>
<trkpt lat="46.046210000" lon="-73.697050000">
<ele>0</ele>
<time>2026-09-04T06:45:41Z</time>
</trkpt>
<trkpt lat="46.046200000" lon="-73.697200000">
<ele>0</ele>
<time>2026-09-04T06:45:42Z</time>
</trkpt>
<trkpt lat="46.046120000" lon="-73.697810000">
<ele>0</ele>
<time>2026-09-04T06:45:43Z</time>
</trkpt>
<trkpt lat="46.045950000" lon="-73.698880000">
<ele>0</ele>
<time>2026-09-04T06:45:44Z</time>
</trkpt>
<trkpt lat="46.045950000" lon="-73.698880000">
<ele>0</ele>
<time>2026-09-04T06:45:45Z</time>
</trkpt>
<trkpt lat="46.045760000" lon="-73.700060000">
<ele>0</ele>
<time>2026-09-04T06:45:46Z</time>
</trkpt>
<trkpt lat="46.045320000" lon="-73.703240000">
<ele>0</ele>
<time>2026-09-04T06:45:47Z</time>
</trkpt>
<trkpt lat="46.045380000" lon="-73.703980000">
<ele>0</ele>
<time>2026-09-04T06:45:48Z</time>
</trkpt>
<trkpt lat="46.045560000" lon="-73.704780000">
<ele>0</ele>
<time>2026-09-04T06:45:49Z</time>
</trkpt>
<trkpt lat="46.045660000" lon="-73.705020000">
<ele>0</ele>
<time>2026-09-04T06:45:50Z</time>
</trkpt>
<trkpt lat="46.045900000" lon="-73.705280000">
<ele>0</ele>
<time>2026-09-04T06:45:51Z</time>
</trkpt>
<trkpt lat="46.046860000" lon="-73.705540000">
<ele>0</ele>
<time>2026-09-04T06:45:52Z</time>
</trkpt>
<trkpt lat="46.047660000" lon="-73.705450000">
<ele>0</ele>
<time>2026-09-04T06:45:53Z</time>
</trkpt>
<trkpt lat="46.048050000" lon="-73.705190000">
<ele>0</ele>
<time>2026-09-04T06:45:54Z</time>
</trkpt>
<trkpt lat="46.048400000" lon="-73.704760000">
<ele>0</ele>
<time>2026-09-04T06:45:55Z</time>
</trkpt>
<trkpt lat="46.048890000" lon="-73.703780000">
<ele>0</ele>
<time>2026-09-04T06:45:56Z</time>
</trkpt>
<trkpt lat="46.049450000" lon="-73.702900000">
<ele>0</ele>
<time>2026-09-04T06:45:57Z</time>
</trkpt>
<trkpt lat="46.049520000" lon="-73.702770000">
<ele>0</ele>
<time>2026-09-04T06:45:58Z</time>
</trkpt>
<trkpt lat="46.050000000" lon="-73.702250000">
<ele>0</ele>
<time>2026-09-04T06:45:59Z</time>
</trkpt>
<trkpt lat="46.050200000" lon="-73.702030000">
<ele>0</ele>
<time>2026-09-04T06:46:00Z</time>
</trkpt>
<trkpt lat="46.050480000" lon="-73.701810000">
<ele>0</ele>
<time>2026-09-04T06:46:01Z</time>
</trkpt>
<trkpt lat="46.050900000" lon="-73.701490000">
<ele>0</ele>
<time>2026-09-04T06:46:02Z</time>
</trkpt>
<trkpt lat="46.051240000" lon="-73.701250000">
<ele>0</ele>
<time>2026-09-04T06:46:03Z</time>
</trkpt>
<trkpt lat="46.051410000" lon="-73.701180000">
<ele>0</ele>
<time>2026-09-04T06:46:04Z</time>
</trkpt>
<trkpt lat="46.052030000" lon="-73.701080000">
<ele>0</ele>
<time>2026-09-04T06:46:05Z</time>
</trkpt>
<trkpt lat="46.052540000" lon="-73.701030000">
<ele>0</ele>
<time>2026-09-04T06:46:06Z</time>
</trkpt>
<trkpt lat="46.052850000" lon="-73.700910000">
<ele>0</ele>
<time>2026-09-04T06:46:07Z</time>
</trkpt>
<trkpt lat="46.052890000" lon="-73.700780000">
<ele>0</ele>
<time>2026-09-04T06:46:08Z</time>
</trkpt>
<trkpt lat="46.053010000" lon="-73.700800000">
<ele>0</ele>
<time>2026-09-04T06:46:09Z</time>
</trkpt>
<trkpt lat="46.053010000" lon="-73.700800000">
<ele>0</ele>
<time>2026-09-04T06:46:10Z</time>
</trkpt>
<trkpt lat="46.054240000" lon="-73.701050000">
<ele>0</ele>
<time>2026-09-04T06:46:11Z</time>
</trkpt>
<trkpt lat="46.054660000" lon="-73.701100000">
<ele>0</ele>
<time>2026-09-04T06:46:12Z</time>
</trkpt>
<trkpt lat="46.054850000" lon="-73.701160000">
<ele>0</ele>
<time>2026-09-04T06:46:13Z</time>
</trkpt>
<trkpt lat="46.054980000" lon="-73.701210000">
<ele>0</ele>
<time>2026-09-04T06:46:14Z</time>
</trkpt>
<trkpt lat="46.055130000" lon="-73.701340000">
<ele>0</ele>
<time>2026-09-04T06:46:15Z</time>
</trkpt>
<trkpt lat="46.055320000" lon="-73.701540000">
<ele>0</ele>
<time>2026-09-04T06:46:16Z</time>
</trkpt>
<trkpt lat="46.055400000" lon="-73.701620000">
<ele>0</ele>
<time>2026-09-04T06:46:17Z</time>
</trkpt>
<trkpt lat="46.055530000" lon="-73.701690000">
<ele>0</ele>
<time>2026-09-04T06:46:18Z</time>
</trkpt>
<trkpt lat="46.055680000" lon="-73.701750000">
<ele>0</ele>
<time>2026-09-04T06:46:19Z</time>
</trkpt>
<trkpt lat="46.055830000" lon="-73.701740000">
<ele>0</ele>
<time>2026-09-04T06:46:20Z</time>
</trkpt>
<trkpt lat="46.055970000" lon="-73.701720000">
<ele>0</ele>
<time>2026-09-04T06:46:21Z</time>
</trkpt>
<trkpt lat="46.056120000" lon="-73.701680000">
<ele>0</ele>
<time>2026-09-04T06:46:22Z</time>
</trkpt>
<trkpt lat="46.056460000" lon="-73.701570000">
<ele>0</ele>
<time>2026-09-04T06:46:23Z</time>
</trkpt>
<trkpt lat="46.056630000" lon="-73.701590000">
<ele>0</ele>
<time>2026-09-04T06:46:24Z</time>
</trkpt>
<trkpt lat="46.056860000" lon="-73.701720000">
<ele>0</ele>
<time>2026-09-04T06:46:25Z</time>
</trkpt>
<trkpt lat="46.057020000" lon="-73.701880000">
<ele>0</ele>
<time>2026-09-04T06:46:26Z</time>
</trkpt>
<trkpt lat="46.057170000" lon="-73.702060000">
<ele>0</ele>
<time>2026-09-04T06:46:27Z</time>
</trkpt>
<trkpt lat="46.057330000" lon="-73.702380000">
<ele>0</ele>
<time>2026-09-04T06:46:28Z</time>
</trkpt>
<trkpt lat="46.057390000" lon="-73.702540000">
<ele>0</ele>
<time>2026-09-04T06:46:29Z</time>
</trkpt>
<trkpt lat="46.057390000" lon="-73.702540000">
<ele>0</ele>
<time>2026-09-04T06:46:30Z</time>
</trkpt>
<trkpt lat="46.057410000" lon="-73.702600000">
<ele>0</ele>
<time>2026-09-04T06:46:31Z</time>
</trkpt>
</trkseg>
</trk>
</gpx>
